<?xml version="1.0" encoding="UTF-8" standalone="no" ?>
<gpx xmlns="http://www.topografix.com/GPX/1/1" xmlns:xsi="http://www.w3.org/2001/XMLSchema-instance" xsi:schemaLocation="http://www.topografix.com/GPX/1/1 http://www.topografix.com/GPX/1/1/gpx.xsd" version="1.1" creator="VisuGPX - https://www.visugpx.com">
  <metadata>
    <name>9562055-2019 j2 decouverte</name>
  </metadata>
  <trk>
    <name><![CDATA[9562055-2019 j2 decouverte]]></name>
    <trkseg>
      <trkpt lat="46.0783" lon="6.72624">
        <ele>705</ele>
        <time>2019-06-11T11:35:01Z</time>
      </trkpt>
      <trkpt lat="46.07863" lon="6.72539">
        <ele>703</ele>
        <time>2019-06-11T11:35:13Z</time>
      </trkpt>
      <trkpt lat="46.07809" lon="6.72494">
        <ele>702</ele>
        <time>2019-06-11T11:35:24Z</time>
      </trkpt>
      <trkpt lat="46.07797" lon="6.72476">
        <ele>701</ele>
        <time>2019-06-11T11:35:27Z</time>
      </trkpt>
      <trkpt lat="46.07791" lon="6.7246">
        <ele>701</ele>
        <time>2019-06-11T11:35:29Z</time>
      </trkpt>
      <trkpt lat="46.07665" lon="6.72013">
        <ele>700</ele>
        <time>2019-06-11T11:36:29Z</time>
      </trkpt>
      <trkpt lat="46.07663" lon="6.71998">
        <ele>700</ele>
        <time>2019-06-11T11:36:31Z</time>
      </trkpt>
      <trkpt lat="46.07664" lon="6.71979">
        <ele>700</ele>
        <time>2019-06-11T11:36:33Z</time>
      </trkpt>
      <trkpt lat="46.07677" lon="6.71954">
        <ele>698</ele>
        <time>2019-06-11T11:36:37Z</time>
      </trkpt>
      <trkpt lat="46.07684" lon="6.71942">
        <ele>698</ele>
        <time>2019-06-11T11:36:39Z</time>
      </trkpt>
      <trkpt lat="46.07688" lon="6.71938">
        <ele>698</ele>
        <time>2019-06-11T11:36:40Z</time>
      </trkpt>
      <trkpt lat="46.07693" lon="6.71936">
        <ele>697</ele>
        <time>2019-06-11T11:36:41Z</time>
      </trkpt>
      <trkpt lat="46.07698" lon="6.7193">
        <ele>697</ele>
        <time>2019-06-11T11:36:42Z</time>
      </trkpt>
      <trkpt lat="46.07699" lon="6.71923">
        <ele>697</ele>
        <time>2019-06-11T11:36:43Z</time>
      </trkpt>
      <trkpt lat="46.07698" lon="6.71916">
        <ele>697</ele>
        <time>2019-06-11T11:36:44Z</time>
      </trkpt>
      <trkpt lat="46.07691" lon="6.71907">
        <ele>697</ele>
        <time>2019-06-11T11:36:45Z</time>
      </trkpt>
      <trkpt lat="46.07684" lon="6.71908">
        <ele>697</ele>
        <time>2019-06-11T11:36:47Z</time>
      </trkpt>
      <trkpt lat="46.0768" lon="6.71913">
        <ele>698</ele>
        <time>2019-06-11T11:36:48Z</time>
      </trkpt>
      <trkpt lat="46.07678" lon="6.71925">
        <ele>698</ele>
        <time>2019-06-11T11:36:49Z</time>
      </trkpt>
      <trkpt lat="46.07683" lon="6.71936">
        <ele>698</ele>
        <time>2019-06-11T11:36:51Z</time>
      </trkpt>
      <trkpt lat="46.07688" lon="6.71938">
        <ele>698</ele>
        <time>2019-06-11T11:36:52Z</time>
      </trkpt>
      <trkpt lat="46.07693" lon="6.71936">
        <ele>697</ele>
        <time>2019-06-11T11:36:53Z</time>
      </trkpt>
      <trkpt lat="46.07698" lon="6.7193">
        <ele>697</ele>
        <time>2019-06-11T11:36:54Z</time>
      </trkpt>
      <trkpt lat="46.07699" lon="6.71923">
        <ele>697</ele>
        <time>2019-06-11T11:36:55Z</time>
      </trkpt>
      <trkpt lat="46.07698" lon="6.71916">
        <ele>697</ele>
        <time>2019-06-11T11:36:56Z</time>
      </trkpt>
      <trkpt lat="46.07706" lon="6.71896">
        <ele>697</ele>
        <time>2019-06-11T11:36:58Z</time>
      </trkpt>
      <trkpt lat="46.07714" lon="6.71891">
        <ele>696</ele>
        <time>2019-06-11T11:37:00Z</time>
      </trkpt>
      <trkpt lat="46.07727" lon="6.7187">
        <ele>696</ele>
        <time>2019-06-11T11:37:03Z</time>
      </trkpt>
      <trkpt lat="46.07819" lon="6.71638">
        <ele>695</ele>
        <time>2019-06-11T11:37:36Z</time>
      </trkpt>
      <trkpt lat="46.07867" lon="6.71509">
        <ele>693</ele>
        <time>2019-06-11T11:37:54Z</time>
      </trkpt>
      <trkpt lat="46.0787" lon="6.71506">
        <ele>693</ele>
        <time>2019-06-11T11:37:55Z</time>
      </trkpt>
      <trkpt lat="46.07874" lon="6.71507">
        <ele>693</ele>
        <time>2019-06-11T11:37:56Z</time>
      </trkpt>
      <trkpt lat="46.07949" lon="6.71549">
        <ele>692</ele>
        <time>2019-06-11T11:38:10Z</time>
      </trkpt>
      <trkpt lat="46.07955" lon="6.71547">
        <ele>692</ele>
        <time>2019-06-11T11:38:11Z</time>
      </trkpt>
      <trkpt lat="46.0797" lon="6.71539">
        <ele>691</ele>
        <time>2019-06-11T11:38:14Z</time>
      </trkpt>
      <trkpt lat="46.07977" lon="6.71531">
        <ele>691</ele>
        <time>2019-06-11T11:38:16Z</time>
      </trkpt>
      <trkpt lat="46.07989" lon="6.71497">
        <ele>691</ele>
        <time>2019-06-11T11:38:20Z</time>
      </trkpt>
      <trkpt lat="46.07992" lon="6.71494">
        <ele>690</ele>
        <time>2019-06-11T11:38:21Z</time>
      </trkpt>
      <trkpt lat="46.08" lon="6.71492">
        <ele>690</ele>
        <time>2019-06-11T11:38:22Z</time>
      </trkpt>
      <trkpt lat="46.08027" lon="6.715">
        <ele>689</ele>
        <time>2019-06-11T11:38:27Z</time>
      </trkpt>
      <trkpt lat="46.08077" lon="6.71522">
        <ele>689</ele>
        <time>2019-06-11T11:38:37Z</time>
      </trkpt>
      <trkpt lat="46.08143" lon="6.71543">
        <ele>689</ele>
        <time>2019-06-11T11:38:49Z</time>
      </trkpt>
      <trkpt lat="46.0821" lon="6.7157">
        <ele>691</ele>
        <time>2019-06-11T11:39:01Z</time>
      </trkpt>
      <trkpt lat="46.08227" lon="6.71572">
        <ele>691</ele>
        <time>2019-06-11T11:39:04Z</time>
      </trkpt>
      <trkpt lat="46.08269" lon="6.71572">
        <ele>692</ele>
        <time>2019-06-11T11:39:12Z</time>
      </trkpt>
      <trkpt lat="46.08283" lon="6.71574">
        <ele>692</ele>
        <time>2019-06-11T11:39:14Z</time>
      </trkpt>
      <trkpt lat="46.08345" lon="6.7159">
        <ele>692</ele>
        <time>2019-06-11T11:39:25Z</time>
      </trkpt>
      <trkpt lat="46.08347" lon="6.71598">
        <ele>692</ele>
        <time>2019-06-11T11:39:26Z</time>
      </trkpt>
      <trkpt lat="46.08352" lon="6.71602">
        <ele>693</ele>
        <time>2019-06-11T11:39:27Z</time>
      </trkpt>
      <trkpt lat="46.08358" lon="6.71599">
        <ele>693</ele>
        <time>2019-06-11T11:39:28Z</time>
      </trkpt>
      <trkpt lat="46.0836" lon="6.71592">
        <ele>693</ele>
        <time>2019-06-11T11:39:29Z</time>
      </trkpt>
      <trkpt lat="46.08479" lon="6.71618">
        <ele>699</ele>
        <time>2019-06-11T11:39:51Z</time>
      </trkpt>
      <trkpt lat="46.08495" lon="6.7162">
        <ele>700</ele>
        <time>2019-06-11T11:39:54Z</time>
      </trkpt>
      <trkpt lat="46.08502" lon="6.71618">
        <ele>700</ele>
        <time>2019-06-11T11:39:55Z</time>
      </trkpt>
      <trkpt lat="46.08514" lon="6.7161">
        <ele>701</ele>
        <time>2019-06-11T11:39:57Z</time>
      </trkpt>
      <trkpt lat="46.08524" lon="6.71611">
        <ele>701</ele>
        <time>2019-06-11T11:39:59Z</time>
      </trkpt>
      <trkpt lat="46.08587" lon="6.7163">
        <ele>704</ele>
        <time>2019-06-11T11:40:11Z</time>
      </trkpt>
      <trkpt lat="46.08601" lon="6.71625">
        <ele>705</ele>
        <time>2019-06-11T11:40:13Z</time>
      </trkpt>
      <trkpt lat="46.08612" lon="6.71617">
        <ele>706</ele>
        <time>2019-06-11T11:40:15Z</time>
      </trkpt>
      <trkpt lat="46.08615" lon="6.71612">
        <ele>706</ele>
        <time>2019-06-11T11:40:16Z</time>
      </trkpt>
      <trkpt lat="46.08625" lon="6.71574">
        <ele>709</ele>
        <time>2019-06-11T11:40:21Z</time>
      </trkpt>
      <trkpt lat="46.08624" lon="6.71562">
        <ele>710</ele>
        <time>2019-06-11T11:40:23Z</time>
      </trkpt>
      <trkpt lat="46.08619" lon="6.71552">
        <ele>711</ele>
        <time>2019-06-11T11:40:24Z</time>
      </trkpt>
      <trkpt lat="46.08588" lon="6.71529">
        <ele>710</ele>
        <time>2019-06-11T11:40:30Z</time>
      </trkpt>
      <trkpt lat="46.08574" lon="6.7151">
        <ele>711</ele>
        <time>2019-06-11T11:40:34Z</time>
      </trkpt>
      <trkpt lat="46.0855" lon="6.71448">
        <ele>711</ele>
        <time>2019-06-11T11:40:43Z</time>
      </trkpt>
      <trkpt lat="46.08545" lon="6.71415">
        <ele>712</ele>
        <time>2019-06-11T11:40:47Z</time>
      </trkpt>
      <trkpt lat="46.08546" lon="6.71341">
        <ele>713</ele>
        <time>2019-06-11T11:40:56Z</time>
      </trkpt>
      <trkpt lat="46.08548" lon="6.71321">
        <ele>713</ele>
        <time>2019-06-11T11:40:58Z</time>
      </trkpt>
      <trkpt lat="46.08553" lon="6.71296">
        <ele>713</ele>
        <time>2019-06-11T11:41:02Z</time>
      </trkpt>
      <trkpt lat="46.08563" lon="6.71259">
        <ele>713</ele>
        <time>2019-06-11T11:41:06Z</time>
      </trkpt>
      <trkpt lat="46.08578" lon="6.71219">
        <ele>714</ele>
        <time>2019-06-11T11:41:12Z</time>
      </trkpt>
      <trkpt lat="46.08603" lon="6.71145">
        <ele>717</ele>
        <time>2019-06-11T11:41:22Z</time>
      </trkpt>
      <trkpt lat="46.08614" lon="6.7112">
        <ele>719</ele>
        <time>2019-06-11T11:41:26Z</time>
      </trkpt>
      <trkpt lat="46.08624" lon="6.71108">
        <ele>721</ele>
        <time>2019-06-11T11:41:28Z</time>
      </trkpt>
      <trkpt lat="46.08634" lon="6.71103">
        <ele>723</ele>
        <time>2019-06-11T11:41:30Z</time>
      </trkpt>
      <trkpt lat="46.08643" lon="6.71104">
        <ele>725</ele>
        <time>2019-06-11T11:41:32Z</time>
      </trkpt>
      <trkpt lat="46.08654" lon="6.71109">
        <ele>728</ele>
        <time>2019-06-11T11:41:34Z</time>
      </trkpt>
      <trkpt lat="46.0866" lon="6.71121">
        <ele>729</ele>
        <time>2019-06-11T11:41:36Z</time>
      </trkpt>
      <trkpt lat="46.08661" lon="6.7114">
        <ele>730</ele>
        <time>2019-06-11T11:41:38Z</time>
      </trkpt>
      <trkpt lat="46.08655" lon="6.71189">
        <ele>729</ele>
        <time>2019-06-11T11:41:44Z</time>
      </trkpt>
      <trkpt lat="46.08655" lon="6.712">
        <ele>730</ele>
        <time>2019-06-11T11:41:45Z</time>
      </trkpt>
      <trkpt lat="46.08657" lon="6.71214">
        <ele>731</ele>
        <time>2019-06-11T11:41:47Z</time>
      </trkpt>
      <trkpt lat="46.08666" lon="6.71246">
        <ele>734</ele>
        <time>2019-06-11T11:41:51Z</time>
      </trkpt>
      <trkpt lat="46.0867" lon="6.71256">
        <ele>735</ele>
        <time>2019-06-11T11:41:53Z</time>
      </trkpt>
      <trkpt lat="46.08687" lon="6.71279">
        <ele>738</ele>
        <time>2019-06-11T11:41:57Z</time>
      </trkpt>
      <trkpt lat="46.08697" lon="6.71299">
        <ele>740</ele>
        <time>2019-06-11T11:42:00Z</time>
      </trkpt>
      <trkpt lat="46.08704" lon="6.71321">
        <ele>742</ele>
        <time>2019-06-11T11:42:03Z</time>
      </trkpt>
      <trkpt lat="46.0871" lon="6.71352">
        <ele>742</ele>
        <time>2019-06-11T11:42:07Z</time>
      </trkpt>
      <trkpt lat="46.08712" lon="6.71368">
        <ele>741</ele>
        <time>2019-06-11T11:42:09Z</time>
      </trkpt>
      <trkpt lat="46.08717" lon="6.7138">
        <ele>741</ele>
        <time>2019-06-11T11:42:11Z</time>
      </trkpt>
      <trkpt lat="46.08729" lon="6.71387">
        <ele>743</ele>
        <time>2019-06-11T11:42:13Z</time>
      </trkpt>
      <trkpt lat="46.08728" lon="6.71415">
        <ele>741</ele>
        <time>2019-06-11T11:42:17Z</time>
      </trkpt>
      <trkpt lat="46.08731" lon="6.71433">
        <ele>740</ele>
        <time>2019-06-11T11:42:19Z</time>
      </trkpt>
      <trkpt lat="46.08739" lon="6.71451">
        <ele>739</ele>
        <time>2019-06-11T11:42:21Z</time>
      </trkpt>
      <trkpt lat="46.0879" lon="6.71536">
        <ele>741</ele>
        <time>2019-06-11T11:42:35Z</time>
      </trkpt>
      <trkpt lat="46.08796" lon="6.71552">
        <ele>743</ele>
        <time>2019-06-11T11:42:38Z</time>
      </trkpt>
      <trkpt lat="46.08798" lon="6.71572">
        <ele>743</ele>
        <time>2019-06-11T11:42:40Z</time>
      </trkpt>
      <trkpt lat="46.08721" lon="6.71892">
        <ele>725</ele>
        <time>2019-06-11T11:43:22Z</time>
      </trkpt>
      <trkpt lat="46.08707" lon="6.71929">
        <ele>724</ele>
        <time>2019-06-11T11:43:27Z</time>
      </trkpt>
      <trkpt lat="46.08678" lon="6.71987">
        <ele>720</ele>
        <time>2019-06-11T11:43:36Z</time>
      </trkpt>
      <trkpt lat="46.08651" lon="6.72096">
        <ele>717</ele>
        <time>2019-06-11T11:43:50Z</time>
      </trkpt>
      <trkpt lat="46.08643" lon="6.72108">
        <ele>717</ele>
        <time>2019-06-11T11:43:52Z</time>
      </trkpt>
      <trkpt lat="46.08627" lon="6.72121">
        <ele>715</ele>
        <time>2019-06-11T11:43:55Z</time>
      </trkpt>
      <trkpt lat="46.08619" lon="6.72132">
        <ele>714</ele>
        <time>2019-06-11T11:43:57Z</time>
      </trkpt>
      <trkpt lat="46.08576" lon="6.72229">
        <ele>716</ele>
        <time>2019-06-11T11:44:12Z</time>
      </trkpt>
      <trkpt lat="46.08565" lon="6.72249">
        <ele>716</ele>
        <time>2019-06-11T11:44:15Z</time>
      </trkpt>
      <trkpt lat="46.08559" lon="6.72257">
        <ele>715</ele>
        <time>2019-06-11T11:44:16Z</time>
      </trkpt>
      <trkpt lat="46.08573" lon="6.72256">
        <ele>718</ele>
        <time>2019-06-11T11:44:19Z</time>
      </trkpt>
      <trkpt lat="46.08616" lon="6.72245">
        <ele>725</ele>
        <time>2019-06-11T11:44:27Z</time>
      </trkpt>
      <trkpt lat="46.08631" lon="6.72236">
        <ele>727</ele>
        <time>2019-06-11T11:44:29Z</time>
      </trkpt>
      <trkpt lat="46.08644" lon="6.72226">
        <ele>728</ele>
        <time>2019-06-11T11:44:32Z</time>
      </trkpt>
      <trkpt lat="46.08721" lon="6.72138">
        <ele>739</ele>
        <time>2019-06-11T11:44:49Z</time>
      </trkpt>
      <trkpt lat="46.08731" lon="6.72122">
        <ele>740</ele>
        <time>2019-06-11T11:44:52Z</time>
      </trkpt>
      <trkpt lat="46.08791" lon="6.72008">
        <ele>753</ele>
        <time>2019-06-11T11:45:10Z</time>
      </trkpt>
      <trkpt lat="46.08801" lon="6.71986">
        <ele>755</ele>
        <time>2019-06-11T11:45:13Z</time>
      </trkpt>
      <trkpt lat="46.08807" lon="6.71963">
        <ele>756</ele>
        <time>2019-06-11T11:45:16Z</time>
      </trkpt>
      <trkpt lat="46.08844" lon="6.71801">
        <ele>763</ele>
        <time>2019-06-11T11:45:37Z</time>
      </trkpt>
      <trkpt lat="46.08863" lon="6.71725">
        <ele>766</ele>
        <time>2019-06-11T11:45:47Z</time>
      </trkpt>
      <trkpt lat="46.08869" lon="6.71705">
        <ele>768</ele>
        <time>2019-06-11T11:45:50Z</time>
      </trkpt>
      <trkpt lat="46.08876" lon="6.71689">
        <ele>769</ele>
        <time>2019-06-11T11:45:52Z</time>
      </trkpt>
      <trkpt lat="46.08883" lon="6.7168">
        <ele>771</ele>
        <time>2019-06-11T11:45:54Z</time>
      </trkpt>
      <trkpt lat="46.08902" lon="6.71665">
        <ele>777</ele>
        <time>2019-06-11T11:45:58Z</time>
      </trkpt>
      <trkpt lat="46.08914" lon="6.71651">
        <ele>780</ele>
        <time>2019-06-11T11:46:00Z</time>
      </trkpt>
      <trkpt lat="46.0898" lon="6.71548">
        <ele>795</ele>
        <time>2019-06-11T11:46:18Z</time>
      </trkpt>
      <trkpt lat="46.08987" lon="6.71529">
        <ele>797</ele>
        <time>2019-06-11T11:46:20Z</time>
      </trkpt>
      <trkpt lat="46.09002" lon="6.71446">
        <ele>802</ele>
        <time>2019-06-11T11:46:31Z</time>
      </trkpt>
      <trkpt lat="46.09007" lon="6.71433">
        <ele>803</ele>
        <time>2019-06-11T11:46:33Z</time>
      </trkpt>
      <trkpt lat="46.09016" lon="6.71418">
        <ele>805</ele>
        <time>2019-06-11T11:46:35Z</time>
      </trkpt>
      <trkpt lat="46.09027" lon="6.71407">
        <ele>808</ele>
        <time>2019-06-11T11:46:38Z</time>
      </trkpt>
      <trkpt lat="46.09098" lon="6.7135">
        <ele>820</ele>
        <time>2019-06-11T11:46:52Z</time>
      </trkpt>
      <trkpt lat="46.09127" lon="6.71326">
        <ele>825</ele>
        <time>2019-06-11T11:46:58Z</time>
      </trkpt>
      <trkpt lat="46.09135" lon="6.71312">
        <ele>826</ele>
        <time>2019-06-11T11:47:00Z</time>
      </trkpt>
      <trkpt lat="46.09126" lon="6.7135">
        <ele>826</ele>
        <time>2019-06-11T11:47:05Z</time>
      </trkpt>
      <trkpt lat="46.09106" lon="6.71406">
        <ele>824</ele>
        <time>2019-06-11T11:47:13Z</time>
      </trkpt>
      <trkpt lat="46.09103" lon="6.71428">
        <ele>824</ele>
        <time>2019-06-11T11:47:16Z</time>
      </trkpt>
      <trkpt lat="46.09104" lon="6.71436">
        <ele>825</ele>
        <time>2019-06-11T11:47:17Z</time>
      </trkpt>
      <trkpt lat="46.09109" lon="6.71451">
        <ele>826</ele>
        <time>2019-06-11T11:47:19Z</time>
      </trkpt>
      <trkpt lat="46.09125" lon="6.71472">
        <ele>830</ele>
        <time>2019-06-11T11:47:23Z</time>
      </trkpt>
      <trkpt lat="46.0913" lon="6.71482">
        <ele>832</ele>
        <time>2019-06-11T11:47:24Z</time>
      </trkpt>
      <trkpt lat="46.09133" lon="6.71502">
        <ele>834</ele>
        <time>2019-06-11T11:47:27Z</time>
      </trkpt>
      <trkpt lat="46.09132" lon="6.71519">
        <ele>835</ele>
        <time>2019-06-11T11:47:29Z</time>
      </trkpt>
      <trkpt lat="46.09128" lon="6.71536">
        <ele>835</ele>
        <time>2019-06-11T11:47:31Z</time>
      </trkpt>
      <trkpt lat="46.09105" lon="6.71606">
        <ele>832</ele>
        <time>2019-06-11T11:47:41Z</time>
      </trkpt>
      <trkpt lat="46.09054" lon="6.71736">
        <ele>827</ele>
        <time>2019-06-11T11:47:59Z</time>
      </trkpt>
      <trkpt lat="46.09036" lon="6.71788">
        <ele>826</ele>
        <time>2019-06-11T11:48:06Z</time>
      </trkpt>
      <trkpt lat="46.09028" lon="6.71821">
        <ele>827</ele>
        <time>2019-06-11T11:48:10Z</time>
      </trkpt>
      <trkpt lat="46.09019" lon="6.71903">
        <ele>832</ele>
        <time>2019-06-11T11:48:21Z</time>
      </trkpt>
      <trkpt lat="46.09011" lon="6.71945">
        <ele>833</ele>
        <time>2019-06-11T11:48:26Z</time>
      </trkpt>
      <trkpt lat="46.08987" lon="6.7204">
        <ele>835</ele>
        <time>2019-06-11T11:48:39Z</time>
      </trkpt>
      <trkpt lat="46.08972" lon="6.72093">
        <ele>835</ele>
        <time>2019-06-11T11:48:46Z</time>
      </trkpt>
      <trkpt lat="46.08956" lon="6.72142">
        <ele>832</ele>
        <time>2019-06-11T11:48:52Z</time>
      </trkpt>
      <trkpt lat="46.08913" lon="6.72246">
        <ele>823</ele>
        <time>2019-06-11T11:49:07Z</time>
      </trkpt>
      <trkpt lat="46.08907" lon="6.72264">
        <ele>822</ele>
        <time>2019-06-11T11:49:10Z</time>
      </trkpt>
      <trkpt lat="46.0889" lon="6.72332">
        <ele>822</ele>
        <time>2019-06-11T11:49:19Z</time>
      </trkpt>
      <trkpt lat="46.08885" lon="6.72344">
        <ele>821</ele>
        <time>2019-06-11T11:49:20Z</time>
      </trkpt>
      <trkpt lat="46.08878" lon="6.72352">
        <ele>820</ele>
        <time>2019-06-11T11:49:22Z</time>
      </trkpt>
      <trkpt lat="46.0887" lon="6.72368">
        <ele>818</ele>
        <time>2019-06-11T11:49:24Z</time>
      </trkpt>
      <trkpt lat="46.08859" lon="6.7241">
        <ele>819</ele>
        <time>2019-06-11T11:49:30Z</time>
      </trkpt>
      <trkpt lat="46.08843" lon="6.7244">
        <ele>816</ele>
        <time>2019-06-11T11:49:35Z</time>
      </trkpt>
      <trkpt lat="46.08834" lon="6.72452">
        <ele>814</ele>
        <time>2019-06-11T11:49:37Z</time>
      </trkpt>
      <trkpt lat="46.08768" lon="6.72526">
        <ele>804</ele>
        <time>2019-06-11T11:49:52Z</time>
      </trkpt>
      <trkpt lat="46.08758" lon="6.72542">
        <ele>803</ele>
        <time>2019-06-11T11:49:54Z</time>
      </trkpt>
      <trkpt lat="46.08736" lon="6.72593">
        <ele>804</ele>
        <time>2019-06-11T11:50:02Z</time>
      </trkpt>
      <trkpt lat="46.08721" lon="6.72615">
        <ele>800</ele>
        <time>2019-06-11T11:50:06Z</time>
      </trkpt>
      <trkpt lat="46.08676" lon="6.72668">
        <ele>789</ele>
        <time>2019-06-11T11:50:16Z</time>
      </trkpt>
      <trkpt lat="46.08662" lon="6.727">
        <ele>787</ele>
        <time>2019-06-11T11:50:21Z</time>
      </trkpt>
      <trkpt lat="46.08652" lon="6.72738">
        <ele>785</ele>
        <time>2019-06-11T11:50:26Z</time>
      </trkpt>
      <trkpt lat="46.08632" lon="6.72818">
        <ele>780</ele>
        <time>2019-06-11T11:50:36Z</time>
      </trkpt>
      <trkpt lat="46.08627" lon="6.72955">
        <ele>778</ele>
        <time>2019-06-11T11:50:53Z</time>
      </trkpt>
      <trkpt lat="46.08625" lon="6.72972">
        <ele>778</ele>
        <time>2019-06-11T11:50:55Z</time>
      </trkpt>
      <trkpt lat="46.08619" lon="6.72998">
        <ele>777</ele>
        <time>2019-06-11T11:50:59Z</time>
      </trkpt>
      <trkpt lat="46.08549" lon="6.7317">
        <ele>764</ele>
        <time>2019-06-11T11:51:23Z</time>
      </trkpt>
      <trkpt lat="46.08538" lon="6.73199">
        <ele>759</ele>
        <time>2019-06-11T11:51:27Z</time>
      </trkpt>
      <trkpt lat="46.08535" lon="6.73214">
        <ele>758</ele>
        <time>2019-06-11T11:51:29Z</time>
      </trkpt>
      <trkpt lat="46.08535" lon="6.7323">
        <ele>758</ele>
        <time>2019-06-11T11:51:31Z</time>
      </trkpt>
      <trkpt lat="46.08539" lon="6.73277">
        <ele>758</ele>
        <time>2019-06-11T11:51:37Z</time>
      </trkpt>
      <trkpt lat="46.08551" lon="6.73331">
        <ele>759</ele>
        <time>2019-06-11T11:51:44Z</time>
      </trkpt>
      <trkpt lat="46.08553" lon="6.73355">
        <ele>759</ele>
        <time>2019-06-11T11:51:47Z</time>
      </trkpt>
      <trkpt lat="46.08545" lon="6.73404">
        <ele>756</ele>
        <time>2019-06-11T11:51:53Z</time>
      </trkpt>
      <trkpt lat="46.0854" lon="6.73418">
        <ele>755</ele>
        <time>2019-06-11T11:51:55Z</time>
      </trkpt>
      <trkpt lat="46.08533" lon="6.73422">
        <ele>753</ele>
        <time>2019-06-11T11:51:56Z</time>
      </trkpt>
      <trkpt lat="46.08526" lon="6.73421">
        <ele>751</ele>
        <time>2019-06-11T11:51:58Z</time>
      </trkpt>
      <trkpt lat="46.08515" lon="6.73412">
        <ele>749</ele>
        <time>2019-06-11T11:52:00Z</time>
      </trkpt>
      <trkpt lat="46.08494" lon="6.73353">
        <ele>745</ele>
        <time>2019-06-11T11:52:08Z</time>
      </trkpt>
      <trkpt lat="46.08491" lon="6.73337">
        <ele>744</ele>
        <time>2019-06-11T11:52:10Z</time>
      </trkpt>
      <trkpt lat="46.0849" lon="6.73322">
        <ele>744</ele>
        <time>2019-06-11T11:52:12Z</time>
      </trkpt>
      <trkpt lat="46.08496" lon="6.73278">
        <ele>746</ele>
        <time>2019-06-11T11:52:18Z</time>
      </trkpt>
      <trkpt lat="46.08493" lon="6.73268">
        <ele>745</ele>
        <time>2019-06-11T11:52:19Z</time>
      </trkpt>
      <trkpt lat="46.0849" lon="6.73264">
        <ele>744</ele>
        <time>2019-06-11T11:52:20Z</time>
      </trkpt>
      <trkpt lat="46.0848" lon="6.73262">
        <ele>742</ele>
        <time>2019-06-11T11:52:21Z</time>
      </trkpt>
      <trkpt lat="46.08474" lon="6.73267">
        <ele>740</ele>
        <time>2019-06-11T11:52:23Z</time>
      </trkpt>
      <trkpt lat="46.08472" lon="6.73272">
        <ele>740</ele>
        <time>2019-06-11T11:52:23Z</time>
      </trkpt>
      <trkpt lat="46.08469" lon="6.73308">
        <ele>739</ele>
        <time>2019-06-11T11:52:28Z</time>
      </trkpt>
      <trkpt lat="46.08466" lon="6.73321">
        <ele>739</ele>
        <time>2019-06-11T11:52:30Z</time>
      </trkpt>
      <trkpt lat="46.08463" lon="6.73326">
        <ele>738</ele>
        <time>2019-06-11T11:52:30Z</time>
      </trkpt>
      <trkpt lat="46.08455" lon="6.73336">
        <ele>737</ele>
        <time>2019-06-11T11:52:32Z</time>
      </trkpt>
      <trkpt lat="46.08417" lon="6.73368">
        <ele>729</ele>
        <time>2019-06-11T11:52:40Z</time>
      </trkpt>
      <trkpt lat="46.084" lon="6.73394">
        <ele>728</ele>
        <time>2019-06-11T11:52:44Z</time>
      </trkpt>
      <trkpt lat="46.08384" lon="6.73392">
        <ele>727</ele>
        <time>2019-06-11T11:52:47Z</time>
      </trkpt>
      <trkpt lat="46.08361" lon="6.73404">
        <ele>725</ele>
        <time>2019-06-11T11:52:52Z</time>
      </trkpt>
      <trkpt lat="46.08352" lon="6.73407">
        <ele>725</ele>
        <time>2019-06-11T11:52:53Z</time>
      </trkpt>
      <trkpt lat="46.08322" lon="6.73406">
        <ele>723</ele>
        <time>2019-06-11T11:52:59Z</time>
      </trkpt>
      <trkpt lat="46.08302" lon="6.73402">
        <ele>722</ele>
        <time>2019-06-11T11:53:02Z</time>
      </trkpt>
      <trkpt lat="46.08277" lon="6.73392">
        <ele>722</ele>
        <time>2019-06-11T11:53:07Z</time>
      </trkpt>
      <trkpt lat="46.08229" lon="6.73359">
        <ele>719</ele>
        <time>2019-06-11T11:53:16Z</time>
      </trkpt>
      <trkpt lat="46.08212" lon="6.73344">
        <ele>718</ele>
        <time>2019-06-11T11:53:20Z</time>
      </trkpt>
      <trkpt lat="46.08193" lon="6.73323">
        <ele>717</ele>
        <time>2019-06-11T11:53:24Z</time>
      </trkpt>
      <trkpt lat="46.08187" lon="6.73318">
        <ele>717</ele>
        <time>2019-06-11T11:53:25Z</time>
      </trkpt>
      <trkpt lat="46.08177" lon="6.73341">
        <ele>717</ele>
        <time>2019-06-11T11:53:29Z</time>
      </trkpt>
      <trkpt lat="46.08178" lon="6.73342">
        <ele>717</ele>
        <time>2019-06-11T11:53:29Z</time>
      </trkpt>
      <trkpt lat="46.08159" lon="6.73321">
        <ele>716</ele>
        <time>2019-06-11T11:53:33Z</time>
      </trkpt>
      <trkpt lat="46.08116" lon="6.73267">
        <ele>716</ele>
        <time>2019-06-11T11:53:43Z</time>
      </trkpt>
      <trkpt lat="46.08045" lon="6.73167">
        <ele>714</ele>
        <time>2019-06-11T11:54:01Z</time>
      </trkpt>
      <trkpt lat="46.0777" lon="6.7344">
        <ele>706</ele>
        <time>2019-06-11T11:55:00Z</time>
      </trkpt>
      <trkpt lat="46.07718" lon="6.73486">
        <ele>705</ele>
        <time>2019-06-11T11:55:11Z</time>
      </trkpt>
      <trkpt lat="46.07724" lon="6.7349">
        <ele>705</ele>
        <time>2019-06-11T11:55:12Z</time>
      </trkpt>
      <trkpt lat="46.07727" lon="6.735">
        <ele>705</ele>
        <time>2019-06-11T11:55:14Z</time>
      </trkpt>
      <trkpt lat="46.07728" lon="6.73509">
        <ele>705</ele>
        <time>2019-06-11T11:55:15Z</time>
      </trkpt>
      <trkpt lat="46.07725" lon="6.73515">
        <ele>705</ele>
        <time>2019-06-11T11:55:16Z</time>
      </trkpt>
      <trkpt lat="46.07718" lon="6.7352">
        <ele>705</ele>
        <time>2019-06-11T11:55:17Z</time>
      </trkpt>
      <trkpt lat="46.07707" lon="6.73519">
        <ele>705</ele>
        <time>2019-06-11T11:55:19Z</time>
      </trkpt>
      <trkpt lat="46.077" lon="6.73523">
        <ele>706</ele>
        <time>2019-06-11T11:55:21Z</time>
      </trkpt>
      <trkpt lat="46.07658" lon="6.73603">
        <ele>708</ele>
        <time>2019-06-11T11:55:33Z</time>
      </trkpt>
      <trkpt lat="46.07646" lon="6.73635">
        <ele>708</ele>
        <time>2019-06-11T11:55:37Z</time>
      </trkpt>
      <trkpt lat="46.07641" lon="6.73658">
        <ele>708</ele>
        <time>2019-06-11T11:55:40Z</time>
      </trkpt>
      <trkpt lat="46.07639" lon="6.73684">
        <ele>708</ele>
        <time>2019-06-11T11:55:44Z</time>
      </trkpt>
      <trkpt lat="46.07644" lon="6.73795">
        <ele>710</ele>
        <time>2019-06-11T11:55:57Z</time>
      </trkpt>
      <trkpt lat="46.07643" lon="6.73807">
        <ele>710</ele>
        <time>2019-06-11T11:55:59Z</time>
      </trkpt>
      <trkpt lat="46.07612" lon="6.73933">
        <ele>711</ele>
        <time>2019-06-11T11:56:15Z</time>
      </trkpt>
      <trkpt lat="46.07604" lon="6.73958">
        <ele>711</ele>
        <time>2019-06-11T11:56:19Z</time>
      </trkpt>
      <trkpt lat="46.07563" lon="6.74034">
        <ele>712</ele>
        <time>2019-06-11T11:56:31Z</time>
      </trkpt>
      <trkpt lat="46.07558" lon="6.74055">
        <ele>712</ele>
        <time>2019-06-11T11:56:33Z</time>
      </trkpt>
      <trkpt lat="46.07548" lon="6.74131">
        <ele>713</ele>
        <time>2019-06-11T11:56:43Z</time>
      </trkpt>
      <trkpt lat="46.07534" lon="6.74179">
        <ele>713</ele>
        <time>2019-06-11T11:56:49Z</time>
      </trkpt>
      <trkpt lat="46.07533" lon="6.74231">
        <ele>714</ele>
        <time>2019-06-11T11:56:56Z</time>
      </trkpt>
      <trkpt lat="46.07525" lon="6.74254">
        <ele>714</ele>
        <time>2019-06-11T11:56:59Z</time>
      </trkpt>
      <trkpt lat="46.0751" lon="6.74277">
        <ele>714</ele>
        <time>2019-06-11T11:57:03Z</time>
      </trkpt>
      <trkpt lat="46.07486" lon="6.74305">
        <ele>714</ele>
        <time>2019-06-11T11:57:08Z</time>
      </trkpt>
      <trkpt lat="46.07405" lon="6.74453">
        <ele>718</ele>
        <time>2019-06-11T11:57:32Z</time>
      </trkpt>
      <trkpt lat="46.07373" lon="6.74497">
        <ele>720</ele>
        <time>2019-06-11T11:57:39Z</time>
      </trkpt>
      <trkpt lat="46.07356" lon="6.74513">
        <ele>719</ele>
        <time>2019-06-11T11:57:43Z</time>
      </trkpt>
      <trkpt lat="46.07327" lon="6.74537">
        <ele>717</ele>
        <time>2019-06-11T11:57:49Z</time>
      </trkpt>
      <trkpt lat="46.0721" lon="6.74616">
        <ele>716</ele>
        <time>2019-06-11T11:58:12Z</time>
      </trkpt>
      <trkpt lat="46.07177" lon="6.74642">
        <ele>715</ele>
        <time>2019-06-11T11:58:19Z</time>
      </trkpt>
      <trkpt lat="46.07155" lon="6.74672">
        <ele>717</ele>
        <time>2019-06-11T11:58:24Z</time>
      </trkpt>
      <trkpt lat="46.0713" lon="6.7472">
        <ele>720</ele>
        <time>2019-06-11T11:58:31Z</time>
      </trkpt>
      <trkpt lat="46.07118" lon="6.74733">
        <ele>721</ele>
        <time>2019-06-11T11:58:34Z</time>
      </trkpt>
      <trkpt lat="46.07108" lon="6.74736">
        <ele>721</ele>
        <time>2019-06-11T11:58:36Z</time>
      </trkpt>
      <trkpt lat="46.07065" lon="6.74735">
        <ele>721</ele>
        <time>2019-06-11T11:58:44Z</time>
      </trkpt>
      <trkpt lat="46.07048" lon="6.7474">
        <ele>720</ele>
        <time>2019-06-11T11:58:47Z</time>
      </trkpt>
      <trkpt lat="46.07023" lon="6.74752">
        <ele>719</ele>
        <time>2019-06-11T11:58:51Z</time>
      </trkpt>
      <trkpt lat="46.07005" lon="6.74755">
        <ele>718</ele>
        <time>2019-06-11T11:58:55Z</time>
      </trkpt>
      <trkpt lat="46.06983" lon="6.74749">
        <ele>718</ele>
        <time>2019-06-11T11:58:59Z</time>
      </trkpt>
      <trkpt lat="46.0697" lon="6.74742">
        <ele>718</ele>
        <time>2019-06-11T11:59:01Z</time>
      </trkpt>
      <trkpt lat="46.06937" lon="6.74708">
        <ele>719</ele>
        <time>2019-06-11T11:59:08Z</time>
      </trkpt>
      <trkpt lat="46.06877" lon="6.74683">
        <ele>719</ele>
        <time>2019-06-11T11:59:19Z</time>
      </trkpt>
      <trkpt lat="46.06756" lon="6.74629">
        <ele>716</ele>
        <time>2019-06-11T11:59:42Z</time>
      </trkpt>
      <trkpt lat="46.06351" lon="6.74461">
        <ele>724</ele>
        <time>2019-06-11T12:00:57Z</time>
      </trkpt>
      <trkpt lat="46.06344" lon="6.74455">
        <ele>724</ele>
        <time>2019-06-11T12:00:58Z</time>
      </trkpt>
      <trkpt lat="46.06342" lon="6.7445">
        <ele>724</ele>
        <time>2019-06-11T12:00:59Z</time>
      </trkpt>
      <trkpt lat="46.0634" lon="6.74431">
        <ele>724</ele>
        <time>2019-06-11T12:01:01Z</time>
      </trkpt>
      <trkpt lat="46.06297" lon="6.74438">
        <ele>725</ele>
        <time>2019-06-11T12:01:09Z</time>
      </trkpt>
      <trkpt lat="46.06248" lon="6.74442">
        <ele>725</ele>
        <time>2019-06-11T12:01:18Z</time>
      </trkpt>
      <trkpt lat="46.06125" lon="6.74448">
        <ele>725</ele>
        <time>2019-06-11T12:01:40Z</time>
      </trkpt>
      <trkpt lat="46.06042" lon="6.74454">
        <ele>727</ele>
        <time>2019-06-11T12:01:55Z</time>
      </trkpt>
      <trkpt lat="46.06023" lon="6.74459">
        <ele>727</ele>
        <time>2019-06-11T12:01:58Z</time>
      </trkpt>
      <trkpt lat="46.05997" lon="6.74471">
        <ele>728</ele>
        <time>2019-06-11T12:02:03Z</time>
      </trkpt>
      <trkpt lat="46.05987" lon="6.74481">
        <ele>728</ele>
        <time>2019-06-11T12:02:05Z</time>
      </trkpt>
      <trkpt lat="46.05969" lon="6.74504">
        <ele>728</ele>
        <time>2019-06-11T12:02:09Z</time>
      </trkpt>
      <trkpt lat="46.05928" lon="6.7458">
        <ele>729</ele>
        <time>2019-06-11T12:02:21Z</time>
      </trkpt>
      <trkpt lat="46.05847" lon="6.74722">
        <ele>746</ele>
        <time>2019-06-11T12:02:44Z</time>
      </trkpt>
      <trkpt lat="46.05815" lon="6.74785">
        <ele>752</ele>
        <time>2019-06-11T12:02:54Z</time>
      </trkpt>
      <trkpt lat="46.05802" lon="6.74806">
        <ele>753</ele>
        <time>2019-06-11T12:02:57Z</time>
      </trkpt>
      <trkpt lat="46.05757" lon="6.74866">
        <ele>746</ele>
        <time>2019-06-11T12:03:08Z</time>
      </trkpt>
      <trkpt lat="46.05744" lon="6.74888">
        <ele>747</ele>
        <time>2019-06-11T12:03:11Z</time>
      </trkpt>
      <trkpt lat="46.05741" lon="6.749">
        <ele>748</ele>
        <time>2019-06-11T12:03:13Z</time>
      </trkpt>
      <trkpt lat="46.0574" lon="6.74914">
        <ele>749</ele>
        <time>2019-06-11T12:03:15Z</time>
      </trkpt>
      <trkpt lat="46.05744" lon="6.74981">
        <ele>748</ele>
        <time>2019-06-11T12:03:23Z</time>
      </trkpt>
      <trkpt lat="46.05749" lon="6.75003">
        <ele>749</ele>
        <time>2019-06-11T12:03:26Z</time>
      </trkpt>
      <trkpt lat="46.05764" lon="6.75038">
        <ele>750</ele>
        <time>2019-06-11T12:03:31Z</time>
      </trkpt>
      <trkpt lat="46.05783" lon="6.75071">
        <ele>752</ele>
        <time>2019-06-11T12:03:36Z</time>
      </trkpt>
      <trkpt lat="46.05798" lon="6.75087">
        <ele>753</ele>
        <time>2019-06-11T12:03:40Z</time>
      </trkpt>
      <trkpt lat="46.05834" lon="6.75116">
        <ele>757</ele>
        <time>2019-06-11T12:03:47Z</time>
      </trkpt>
      <trkpt lat="46.05845" lon="6.75131">
        <ele>760</ele>
        <time>2019-06-11T12:03:50Z</time>
      </trkpt>
      <trkpt lat="46.05851" lon="6.75144">
        <ele>761</ele>
        <time>2019-06-11T12:03:52Z</time>
      </trkpt>
      <trkpt lat="46.05861" lon="6.7518">
        <ele>762</ele>
        <time>2019-06-11T12:03:56Z</time>
      </trkpt>
      <trkpt lat="46.05884" lon="6.75313">
        <ele>763</ele>
        <time>2019-06-11T12:04:13Z</time>
      </trkpt>
      <trkpt lat="46.05887" lon="6.75336">
        <ele>763</ele>
        <time>2019-06-11T12:04:16Z</time>
      </trkpt>
      <trkpt lat="46.05886" lon="6.75372">
        <ele>768</ele>
        <time>2019-06-11T12:04:21Z</time>
      </trkpt>
      <trkpt lat="46.05878" lon="6.75426">
        <ele>772</ele>
        <time>2019-06-11T12:04:27Z</time>
      </trkpt>
      <trkpt lat="46.05839" lon="6.75531">
        <ele>780</ele>
        <time>2019-06-11T12:04:42Z</time>
      </trkpt>
      <trkpt lat="46.05832" lon="6.75546">
        <ele>782</ele>
        <time>2019-06-11T12:04:44Z</time>
      </trkpt>
      <trkpt lat="46.05823" lon="6.7556">
        <ele>783</ele>
        <time>2019-06-11T12:04:47Z</time>
      </trkpt>
      <trkpt lat="46.05813" lon="6.75573">
        <ele>784</ele>
        <time>2019-06-11T12:04:49Z</time>
      </trkpt>
      <trkpt lat="46.05738" lon="6.75632">
        <ele>783</ele>
        <time>2019-06-11T12:05:04Z</time>
      </trkpt>
      <trkpt lat="46.05671" lon="6.75692">
        <ele>783</ele>
        <time>2019-06-11T12:05:18Z</time>
      </trkpt>
      <trkpt lat="46.05651" lon="6.75713">
        <ele>786</ele>
        <time>2019-06-11T12:05:23Z</time>
      </trkpt>
      <trkpt lat="46.05637" lon="6.75736">
        <ele>791</ele>
        <time>2019-06-11T12:05:27Z</time>
      </trkpt>
      <trkpt lat="46.056" lon="6.75809">
        <ele>792</ele>
        <time>2019-06-11T12:05:38Z</time>
      </trkpt>
      <trkpt lat="46.05557" lon="6.75904">
        <ele>787</ele>
        <time>2019-06-11T12:05:52Z</time>
      </trkpt>
      <trkpt lat="46.05551" lon="6.75928">
        <ele>785</ele>
        <time>2019-06-11T12:05:55Z</time>
      </trkpt>
      <trkpt lat="46.05551" lon="6.75953">
        <ele>782</ele>
        <time>2019-06-11T12:05:58Z</time>
      </trkpt>
      <trkpt lat="46.05559" lon="6.75979">
        <ele>778</ele>
        <time>2019-06-11T12:06:02Z</time>
      </trkpt>
      <trkpt lat="46.05565" lon="6.7599">
        <ele>776</ele>
        <time>2019-06-11T12:06:03Z</time>
      </trkpt>
      <trkpt lat="46.05608" lon="6.76048">
        <ele>778</ele>
        <time>2019-06-11T12:06:14Z</time>
      </trkpt>
      <trkpt lat="46.05619" lon="6.76068">
        <ele>782</ele>
        <time>2019-06-11T12:06:17Z</time>
      </trkpt>
      <trkpt lat="46.05623" lon="6.76082">
        <ele>783</ele>
        <time>2019-06-11T12:06:19Z</time>
      </trkpt>
      <trkpt lat="46.05626" lon="6.76102">
        <ele>783</ele>
        <time>2019-06-11T12:06:21Z</time>
      </trkpt>
      <trkpt lat="46.05626" lon="6.76125">
        <ele>782</ele>
        <time>2019-06-11T12:06:24Z</time>
      </trkpt>
      <trkpt lat="46.05623" lon="6.76146">
        <ele>779</ele>
        <time>2019-06-11T12:06:27Z</time>
      </trkpt>
      <trkpt lat="46.05612" lon="6.76203">
        <ele>777</ele>
        <time>2019-06-11T12:06:34Z</time>
      </trkpt>
      <trkpt lat="46.05605" lon="6.76222">
        <ele>776</ele>
        <time>2019-06-11T12:06:37Z</time>
      </trkpt>
      <trkpt lat="46.05602" lon="6.76228">
        <ele>776</ele>
        <time>2019-06-11T12:06:38Z</time>
      </trkpt>
      <trkpt lat="46.05565" lon="6.76276">
        <ele>770</ele>
        <time>2019-06-11T12:06:46Z</time>
      </trkpt>
      <trkpt lat="46.05549" lon="6.76308">
        <ele>769</ele>
        <time>2019-06-11T12:06:51Z</time>
      </trkpt>
      <trkpt lat="46.05542" lon="6.76334">
        <ele>770</ele>
        <time>2019-06-11T12:06:55Z</time>
      </trkpt>
      <trkpt lat="46.05536" lon="6.76368">
        <ele>770</ele>
        <time>2019-06-11T12:06:59Z</time>
      </trkpt>
      <trkpt lat="46.05535" lon="6.76387">
        <ele>771</ele>
        <time>2019-06-11T12:07:01Z</time>
      </trkpt>
      <trkpt lat="46.05537" lon="6.76419">
        <ele>774</ele>
        <time>2019-06-11T12:07:05Z</time>
      </trkpt>
      <trkpt lat="46.05544" lon="6.76475">
        <ele>776</ele>
        <time>2019-06-11T12:07:12Z</time>
      </trkpt>
      <trkpt lat="46.05542" lon="6.76519">
        <ele>778</ele>
        <time>2019-06-11T12:07:18Z</time>
      </trkpt>
      <trkpt lat="46.05513" lon="6.76651">
        <ele>777</ele>
        <time>2019-06-11T12:07:35Z</time>
      </trkpt>
      <trkpt lat="46.05506" lon="6.76704">
        <ele>773</ele>
        <time>2019-06-11T12:07:42Z</time>
      </trkpt>
      <trkpt lat="46.05506" lon="6.7681">
        <ele>770</ele>
        <time>2019-06-11T12:07:55Z</time>
      </trkpt>
      <trkpt lat="46.05507" lon="6.76846">
        <ele>769</ele>
        <time>2019-06-11T12:07:59Z</time>
      </trkpt>
      <trkpt lat="46.05518" lon="6.76946">
        <ele>779</ele>
        <time>2019-06-11T12:08:12Z</time>
      </trkpt>
      <trkpt lat="46.0552" lon="6.7698">
        <ele>783</ele>
        <time>2019-06-11T12:08:16Z</time>
      </trkpt>
      <trkpt lat="46.05519" lon="6.76998">
        <ele>783</ele>
        <time>2019-06-11T12:08:18Z</time>
      </trkpt>
      <trkpt lat="46.05509" lon="6.77096">
        <ele>775</ele>
        <time>2019-06-11T12:08:30Z</time>
      </trkpt>
      <trkpt lat="46.05489" lon="6.77217">
        <ele>766</ele>
        <time>2019-06-11T12:08:46Z</time>
      </trkpt>
      <trkpt lat="46.05485" lon="6.7726">
        <ele>765</ele>
        <time>2019-06-11T12:08:51Z</time>
      </trkpt>
      <trkpt lat="46.05486" lon="6.77294">
        <ele>765</ele>
        <time>2019-06-11T12:08:55Z</time>
      </trkpt>
      <trkpt lat="46.05494" lon="6.77367">
        <ele>764</ele>
        <time>2019-06-11T12:09:04Z</time>
      </trkpt>
      <trkpt lat="46.05508" lon="6.77454">
        <ele>766</ele>
        <time>2019-06-11T12:09:15Z</time>
      </trkpt>
      <trkpt lat="46.05478" lon="6.77461">
        <ele>763</ele>
        <time>2019-06-11T12:09:21Z</time>
      </trkpt>
      <trkpt lat="46.0543" lon="6.77311">
        <ele>760</ele>
        <time>2019-06-11T12:09:41Z</time>
      </trkpt>
      <trkpt lat="46.05425" lon="6.77288">
        <ele>760</ele>
        <time>2019-06-11T12:09:44Z</time>
      </trkpt>
      <trkpt lat="46.05383" lon="6.77168">
        <ele>756</ele>
        <time>2019-06-11T12:10:01Z</time>
      </trkpt>
      <trkpt lat="46.05297" lon="6.76932">
        <ele>755</ele>
        <time>2019-06-11T12:10:34Z</time>
      </trkpt>
      <trkpt lat="46.05293" lon="6.76925">
        <ele>755</ele>
        <time>2019-06-11T12:10:35Z</time>
      </trkpt>
      <trkpt lat="46.05282" lon="6.76918">
        <ele>757</ele>
        <time>2019-06-11T12:10:37Z</time>
      </trkpt>
      <trkpt lat="46.0526" lon="6.76911">
        <ele>760</ele>
        <time>2019-06-11T12:10:41Z</time>
      </trkpt>
      <trkpt lat="46.05251" lon="6.76905">
        <ele>761</ele>
        <time>2019-06-11T12:10:43Z</time>
      </trkpt>
      <trkpt lat="46.05242" lon="6.76896">
        <ele>762</ele>
        <time>2019-06-11T12:10:45Z</time>
      </trkpt>
      <trkpt lat="46.05235" lon="6.76884">
        <ele>762</ele>
        <time>2019-06-11T12:10:47Z</time>
      </trkpt>
      <trkpt lat="46.05233" lon="6.76878">
        <ele>761</ele>
        <time>2019-06-11T12:10:47Z</time>
      </trkpt>
      <trkpt lat="46.05229" lon="6.76846">
        <ele>759</ele>
        <time>2019-06-11T12:10:52Z</time>
      </trkpt>
      <trkpt lat="46.05221" lon="6.76829">
        <ele>758</ele>
        <time>2019-06-11T12:10:54Z</time>
      </trkpt>
      <trkpt lat="46.05175" lon="6.76767">
        <ele>757</ele>
        <time>2019-06-11T12:11:05Z</time>
      </trkpt>
      <trkpt lat="46.05148" lon="6.76737">
        <ele>758</ele>
        <time>2019-06-11T12:11:11Z</time>
      </trkpt>
      <trkpt lat="46.05111" lon="6.76699">
        <ele>762</ele>
        <time>2019-06-11T12:11:19Z</time>
      </trkpt>
      <trkpt lat="46.05043" lon="6.76635">
        <ele>763</ele>
        <time>2019-06-11T12:11:34Z</time>
      </trkpt>
      <trkpt lat="46.05017" lon="6.76615">
        <ele>764</ele>
        <time>2019-06-11T12:11:39Z</time>
      </trkpt>
      <trkpt lat="46.04995" lon="6.76605">
        <ele>764</ele>
        <time>2019-06-11T12:11:43Z</time>
      </trkpt>
      <trkpt lat="46.04953" lon="6.76599">
        <ele>766</ele>
        <time>2019-06-11T12:11:51Z</time>
      </trkpt>
      <trkpt lat="46.04921" lon="6.76586">
        <ele>766</ele>
        <time>2019-06-11T12:11:57Z</time>
      </trkpt>
      <trkpt lat="46.04877" lon="6.76548">
        <ele>767</ele>
        <time>2019-06-11T12:12:06Z</time>
      </trkpt>
      <trkpt lat="46.04852" lon="6.76538">
        <ele>767</ele>
        <time>2019-06-11T12:12:10Z</time>
      </trkpt>
      <trkpt lat="46.04811" lon="6.76514">
        <ele>767</ele>
        <time>2019-06-11T12:12:18Z</time>
      </trkpt>
      <trkpt lat="46.04801" lon="6.76505">
        <ele>767</ele>
        <time>2019-06-11T12:12:20Z</time>
      </trkpt>
      <trkpt lat="46.04768" lon="6.76465">
        <ele>768</ele>
        <time>2019-06-11T12:12:28Z</time>
      </trkpt>
      <trkpt lat="46.04788" lon="6.76508">
        <ele>769</ele>
        <time>2019-06-11T12:12:34Z</time>
      </trkpt>
      <trkpt lat="46.04787" lon="6.76516">
        <ele>770</ele>
        <time>2019-06-11T12:12:35Z</time>
      </trkpt>
      <trkpt lat="46.04771" lon="6.7656">
        <ele>778</ele>
        <time>2019-06-11T12:12:42Z</time>
      </trkpt>
      <trkpt lat="46.04743" lon="6.76602">
        <ele>786</ele>
        <time>2019-06-11T12:12:49Z</time>
      </trkpt>
      <trkpt lat="46.04738" lon="6.76614">
        <ele>787</ele>
        <time>2019-06-11T12:12:50Z</time>
      </trkpt>
      <trkpt lat="46.04735" lon="6.76624">
        <ele>788</ele>
        <time>2019-06-11T12:12:52Z</time>
      </trkpt>
      <trkpt lat="46.0471" lon="6.76626">
        <ele>789</ele>
        <time>2019-06-11T12:12:56Z</time>
      </trkpt>
      <trkpt lat="46.04705" lon="6.76628">
        <ele>789</ele>
        <time>2019-06-11T12:12:57Z</time>
      </trkpt>
      <trkpt lat="46.04701" lon="6.76634">
        <ele>790</ele>
        <time>2019-06-11T12:12:58Z</time>
      </trkpt>
      <trkpt lat="46.04694" lon="6.76662">
        <ele>794</ele>
        <time>2019-06-11T12:13:02Z</time>
      </trkpt>
      <trkpt lat="46.04684" lon="6.76686">
        <ele>797</ele>
        <time>2019-06-11T12:13:05Z</time>
      </trkpt>
      <trkpt lat="46.0468" lon="6.76711">
        <ele>800</ele>
        <time>2019-06-11T12:13:09Z</time>
      </trkpt>
      <trkpt lat="46.04676" lon="6.76769">
        <ele>807</ele>
        <time>2019-06-11T12:13:16Z</time>
      </trkpt>
      <trkpt lat="46.04677" lon="6.76825">
        <ele>814</ele>
        <time>2019-06-11T12:13:23Z</time>
      </trkpt>
      <trkpt lat="46.04672" lon="6.76949">
        <ele>827</ele>
        <time>2019-06-11T12:13:38Z</time>
      </trkpt>
      <trkpt lat="46.04634" lon="6.76954">
        <ele>830</ele>
        <time>2019-06-11T12:13:45Z</time>
      </trkpt>
      <trkpt lat="46.04594" lon="6.76964">
        <ele>833</ele>
        <time>2019-06-11T12:13:52Z</time>
      </trkpt>
      <trkpt lat="46.04556" lon="6.76977">
        <ele>837</ele>
        <time>2019-06-11T12:13:59Z</time>
      </trkpt>
      <trkpt lat="46.04451" lon="6.77019">
        <ele>845</ele>
        <time>2019-06-11T12:14:18Z</time>
      </trkpt>
      <trkpt lat="46.04392" lon="6.77037">
        <ele>849</ele>
        <time>2019-06-11T12:14:29Z</time>
      </trkpt>
      <trkpt lat="46.04329" lon="6.77048">
        <ele>852</ele>
        <time>2019-06-11T12:14:40Z</time>
      </trkpt>
      <trkpt lat="46.04291" lon="6.77048">
        <ele>853</ele>
        <time>2019-06-11T12:14:47Z</time>
      </trkpt>
      <trkpt lat="46.04222" lon="6.77059">
        <ele>855</ele>
        <time>2019-06-11T12:14:59Z</time>
      </trkpt>
      <trkpt lat="46.04187" lon="6.7707">
        <ele>856</ele>
        <time>2019-06-11T12:15:06Z</time>
      </trkpt>
      <trkpt lat="46.04159" lon="6.77085">
        <ele>857</ele>
        <time>2019-06-11T12:15:11Z</time>
      </trkpt>
      <trkpt lat="46.04095" lon="6.77129">
        <ele>860</ele>
        <time>2019-06-11T12:15:24Z</time>
      </trkpt>
      <trkpt lat="46.0405" lon="6.77177">
        <ele>861</ele>
        <time>2019-06-11T12:15:34Z</time>
      </trkpt>
      <trkpt lat="46.04008" lon="6.77234">
        <ele>862</ele>
        <time>2019-06-11T12:15:44Z</time>
      </trkpt>
      <trkpt lat="46.03987" lon="6.77251">
        <ele>861</ele>
        <time>2019-06-11T12:15:48Z</time>
      </trkpt>
      <trkpt lat="46.03913" lon="6.77298">
        <ele>858</ele>
        <time>2019-06-11T12:16:03Z</time>
      </trkpt>
      <trkpt lat="46.03885" lon="6.77311">
        <ele>860</ele>
        <time>2019-06-11T12:16:08Z</time>
      </trkpt>
      <trkpt lat="46.03873" lon="6.77315">
        <ele>861</ele>
        <time>2019-06-11T12:16:10Z</time>
      </trkpt>
      <trkpt lat="46.03849" lon="6.77315">
        <ele>861</ele>
        <time>2019-06-11T12:16:14Z</time>
      </trkpt>
      <trkpt lat="46.03808" lon="6.77306">
        <ele>858</ele>
        <time>2019-06-11T12:16:22Z</time>
      </trkpt>
      <trkpt lat="46.03792" lon="6.77307">
        <ele>857</ele>
        <time>2019-06-11T12:16:25Z</time>
      </trkpt>
      <trkpt lat="46.03779" lon="6.77311">
        <ele>857</ele>
        <time>2019-06-11T12:16:27Z</time>
      </trkpt>
      <trkpt lat="46.03743" lon="6.77338">
        <ele>860</ele>
        <time>2019-06-11T12:16:34Z</time>
      </trkpt>
      <trkpt lat="46.03728" lon="6.77345">
        <ele>862</ele>
        <time>2019-06-11T12:16:37Z</time>
      </trkpt>
      <trkpt lat="46.03665" lon="6.77367">
        <ele>868</ele>
        <time>2019-06-11T12:16:49Z</time>
      </trkpt>
      <trkpt lat="46.03653" lon="6.77369">
        <ele>871</ele>
        <time>2019-06-11T12:16:51Z</time>
      </trkpt>
      <trkpt lat="46.03641" lon="6.77367">
        <ele>872</ele>
        <time>2019-06-11T12:16:53Z</time>
      </trkpt>
      <trkpt lat="46.03517" lon="6.77303">
        <ele>870</ele>
        <time>2019-06-11T12:17:16Z</time>
      </trkpt>
      <trkpt lat="46.03495" lon="6.77294">
        <ele>870</ele>
        <time>2019-06-11T12:17:20Z</time>
      </trkpt>
      <trkpt lat="46.0348" lon="6.77282">
        <ele>867</ele>
        <time>2019-06-11T12:17:23Z</time>
      </trkpt>
      <trkpt lat="46.03476" lon="6.77276">
        <ele>866</ele>
        <time>2019-06-11T12:17:24Z</time>
      </trkpt>
      <trkpt lat="46.0345" lon="6.77211">
        <ele>854</ele>
        <time>2019-06-11T12:17:34Z</time>
      </trkpt>
      <trkpt lat="46.03442" lon="6.77201">
        <ele>853</ele>
        <time>2019-06-11T12:17:36Z</time>
      </trkpt>
      <trkpt lat="46.03426" lon="6.77193">
        <ele>852</ele>
        <time>2019-06-11T12:17:39Z</time>
      </trkpt>
      <trkpt lat="46.03419" lon="6.77191">
        <ele>852</ele>
        <time>2019-06-11T12:17:40Z</time>
      </trkpt>
      <trkpt lat="46.03377" lon="6.77193">
        <ele>856</ele>
        <time>2019-06-11T12:17:47Z</time>
      </trkpt>
      <trkpt lat="46.03362" lon="6.77199">
        <ele>859</ele>
        <time>2019-06-11T12:17:50Z</time>
      </trkpt>
      <trkpt lat="46.03307" lon="6.77229">
        <ele>869</ele>
        <time>2019-06-11T12:18:01Z</time>
      </trkpt>
      <trkpt lat="46.03298" lon="6.77229">
        <ele>871</ele>
        <time>2019-06-11T12:18:02Z</time>
      </trkpt>
      <trkpt lat="46.03292" lon="6.77222">
        <ele>871</ele>
        <time>2019-06-11T12:18:04Z</time>
      </trkpt>
      <trkpt lat="46.03281" lon="6.7719">
        <ele>870</ele>
        <time>2019-06-11T12:18:08Z</time>
      </trkpt>
      <trkpt lat="46.03281" lon="6.77185">
        <ele>869</ele>
        <time>2019-06-11T12:18:09Z</time>
      </trkpt>
      <trkpt lat="46.03323" lon="6.77115">
        <ele>866</ele>
        <time>2019-06-11T12:18:20Z</time>
      </trkpt>
      <trkpt lat="46.03326" lon="6.77101">
        <ele>868</ele>
        <time>2019-06-11T12:18:22Z</time>
      </trkpt>
      <trkpt lat="46.03329" lon="6.76984">
        <ele>890</ele>
        <time>2019-06-11T12:18:36Z</time>
      </trkpt>
      <trkpt lat="46.0333" lon="6.76977">
        <ele>891</ele>
        <time>2019-06-11T12:18:37Z</time>
      </trkpt>
      <trkpt lat="46.03335" lon="6.76967">
        <ele>892</ele>
        <time>2019-06-11T12:18:39Z</time>
      </trkpt>
      <trkpt lat="46.03359" lon="6.76946">
        <ele>890</ele>
        <time>2019-06-11T12:18:44Z</time>
      </trkpt>
      <trkpt lat="46.03425" lon="6.76832">
        <ele>888</ele>
        <time>2019-06-11T12:19:02Z</time>
      </trkpt>
      <trkpt lat="46.03429" lon="6.7682">
        <ele>889</ele>
        <time>2019-06-11T12:19:04Z</time>
      </trkpt>
      <trkpt lat="46.03428" lon="6.76815">
        <ele>890</ele>
        <time>2019-06-11T12:19:04Z</time>
      </trkpt>
      <trkpt lat="46.03424" lon="6.76806">
        <ele>893</ele>
        <time>2019-06-11T12:19:06Z</time>
      </trkpt>
      <trkpt lat="46.03417" lon="6.76802">
        <ele>895</ele>
        <time>2019-06-11T12:19:07Z</time>
      </trkpt>
      <trkpt lat="46.03411" lon="6.76806">
        <ele>897</ele>
        <time>2019-06-11T12:19:08Z</time>
      </trkpt>
      <trkpt lat="46.03332" lon="6.76915">
        <ele>904</ele>
        <time>2019-06-11T12:19:28Z</time>
      </trkpt>
      <trkpt lat="46.03303" lon="6.7694">
        <ele>912</ele>
        <time>2019-06-11T12:19:34Z</time>
      </trkpt>
      <trkpt lat="46.03293" lon="6.76941">
        <ele>916</ele>
        <time>2019-06-11T12:19:35Z</time>
      </trkpt>
      <trkpt lat="46.03278" lon="6.76935">
        <ele>925</ele>
        <time>2019-06-11T12:19:38Z</time>
      </trkpt>
      <trkpt lat="46.03271" lon="6.76937">
        <ele>927</ele>
        <time>2019-06-11T12:19:39Z</time>
      </trkpt>
      <trkpt lat="46.03264" lon="6.76944">
        <ele>928</ele>
        <time>2019-06-11T12:19:41Z</time>
      </trkpt>
      <trkpt lat="46.0324" lon="6.76988">
        <ele>921</ele>
        <time>2019-06-11T12:19:48Z</time>
      </trkpt>
      <trkpt lat="46.03227" lon="6.77001">
        <ele>921</ele>
        <time>2019-06-11T12:19:51Z</time>
      </trkpt>
      <trkpt lat="46.03208" lon="6.77011">
        <ele>923</ele>
        <time>2019-06-11T12:19:54Z</time>
      </trkpt>
      <trkpt lat="46.03197" lon="6.77015">
        <ele>925</ele>
        <time>2019-06-11T12:19:56Z</time>
      </trkpt>
      <trkpt lat="46.03135" lon="6.77017">
        <ele>936</ele>
        <time>2019-06-11T12:20:07Z</time>
      </trkpt>
      <trkpt lat="46.03125" lon="6.77015">
        <ele>937</ele>
        <time>2019-06-11T12:20:09Z</time>
      </trkpt>
      <trkpt lat="46.03097" lon="6.77003">
        <ele>944</ele>
        <time>2019-06-11T12:20:14Z</time>
      </trkpt>
      <trkpt lat="46.03076" lon="6.76999">
        <ele>947</ele>
        <time>2019-06-11T12:20:18Z</time>
      </trkpt>
      <trkpt lat="46.03072" lon="6.77">
        <ele>947</ele>
        <time>2019-06-11T12:20:19Z</time>
      </trkpt>
      <trkpt lat="46.03039" lon="6.77023">
        <ele>945</ele>
        <time>2019-06-11T12:20:25Z</time>
      </trkpt>
      <trkpt lat="46.0299" lon="6.77032">
        <ele>951</ele>
        <time>2019-06-11T12:20:34Z</time>
      </trkpt>
      <trkpt lat="46.02972" lon="6.77038">
        <ele>955</ele>
        <time>2019-06-11T12:20:37Z</time>
      </trkpt>
      <trkpt lat="46.02926" lon="6.77074">
        <ele>957</ele>
        <time>2019-06-11T12:20:47Z</time>
      </trkpt>
      <trkpt lat="46.02896" lon="6.77093">
        <ele>961</ele>
        <time>2019-06-11T12:20:53Z</time>
      </trkpt>
      <trkpt lat="46.02869" lon="6.77104">
        <ele>968</ele>
        <time>2019-06-11T12:20:58Z</time>
      </trkpt>
      <trkpt lat="46.02866" lon="6.77108">
        <ele>968</ele>
        <time>2019-06-11T12:20:58Z</time>
      </trkpt>
      <trkpt lat="46.02863" lon="6.77114">
        <ele>968</ele>
        <time>2019-06-11T12:20:59Z</time>
      </trkpt>
      <trkpt lat="46.02866" lon="6.77153">
        <ele>961</ele>
        <time>2019-06-11T12:21:04Z</time>
      </trkpt>
      <trkpt lat="46.02861" lon="6.77175">
        <ele>961</ele>
        <time>2019-06-11T12:21:07Z</time>
      </trkpt>
      <trkpt lat="46.02851" lon="6.77189">
        <ele>965</ele>
        <time>2019-06-11T12:21:09Z</time>
      </trkpt>
      <trkpt lat="46.02838" lon="6.77206">
        <ele>969</ele>
        <time>2019-06-11T12:21:12Z</time>
      </trkpt>
      <trkpt lat="46.02809" lon="6.77235">
        <ele>980</ele>
        <time>2019-06-11T12:21:19Z</time>
      </trkpt>
      <trkpt lat="46.02799" lon="6.77247">
        <ele>982</ele>
        <time>2019-06-11T12:21:21Z</time>
      </trkpt>
      <trkpt lat="46.02794" lon="6.77259">
        <ele>983</ele>
        <time>2019-06-11T12:21:23Z</time>
      </trkpt>
      <trkpt lat="46.02792" lon="6.77269">
        <ele>984</ele>
        <time>2019-06-11T12:21:24Z</time>
      </trkpt>
      <trkpt lat="46.02792" lon="6.77285">
        <ele>984</ele>
        <time>2019-06-11T12:21:26Z</time>
      </trkpt>
      <trkpt lat="46.02796" lon="6.77304">
        <ele>983</ele>
        <time>2019-06-11T12:21:29Z</time>
      </trkpt>
      <trkpt lat="46.02801" lon="6.7731">
        <ele>982</ele>
        <time>2019-06-11T12:21:30Z</time>
      </trkpt>
      <trkpt lat="46.02822" lon="6.77324">
        <ele>978</ele>
        <time>2019-06-11T12:21:34Z</time>
      </trkpt>
      <trkpt lat="46.02824" lon="6.77331">
        <ele>978</ele>
        <time>2019-06-11T12:21:35Z</time>
      </trkpt>
      <trkpt lat="46.02824" lon="6.77339">
        <ele>977</ele>
        <time>2019-06-11T12:21:36Z</time>
      </trkpt>
      <trkpt lat="46.02821" lon="6.77351">
        <ele>977</ele>
        <time>2019-06-11T12:21:37Z</time>
      </trkpt>
      <trkpt lat="46.02815" lon="6.77365">
        <ele>977</ele>
        <time>2019-06-11T12:21:39Z</time>
      </trkpt>
      <trkpt lat="46.02787" lon="6.7741">
        <ele>980</ele>
        <time>2019-06-11T12:21:47Z</time>
      </trkpt>
      <trkpt lat="46.02782" lon="6.77414">
        <ele>982</ele>
        <time>2019-06-11T12:21:48Z</time>
      </trkpt>
      <trkpt lat="46.02778" lon="6.77415">
        <ele>983</ele>
        <time>2019-06-11T12:21:49Z</time>
      </trkpt>
      <trkpt lat="46.02773" lon="6.77413">
        <ele>984</ele>
        <time>2019-06-11T12:21:49Z</time>
      </trkpt>
      <trkpt lat="46.0277" lon="6.77408">
        <ele>985</ele>
        <time>2019-06-11T12:21:50Z</time>
      </trkpt>
      <trkpt lat="46.02771" lon="6.77391">
        <ele>986</ele>
        <time>2019-06-11T12:21:52Z</time>
      </trkpt>
      <trkpt lat="46.0278" lon="6.77371">
        <ele>985</ele>
        <time>2019-06-11T12:21:55Z</time>
      </trkpt>
      <trkpt lat="46.02782" lon="6.77357">
        <ele>985</ele>
        <time>2019-06-11T12:21:57Z</time>
      </trkpt>
      <trkpt lat="46.02781" lon="6.77349">
        <ele>986</ele>
        <time>2019-06-11T12:21:58Z</time>
      </trkpt>
      <trkpt lat="46.02775" lon="6.77339">
        <ele>988</ele>
        <time>2019-06-11T12:22:00Z</time>
      </trkpt>
      <trkpt lat="46.02771" lon="6.77337">
        <ele>989</ele>
        <time>2019-06-11T12:22:00Z</time>
      </trkpt>
      <trkpt lat="46.02766" lon="6.77338">
        <ele>990</ele>
        <time>2019-06-11T12:22:01Z</time>
      </trkpt>
      <trkpt lat="46.02762" lon="6.77344">
        <ele>990</ele>
        <time>2019-06-11T12:22:02Z</time>
      </trkpt>
      <trkpt lat="46.02754" lon="6.77384">
        <ele>991</ele>
        <time>2019-06-11T12:22:08Z</time>
      </trkpt>
      <trkpt lat="46.02747" lon="6.77396">
        <ele>992</ele>
        <time>2019-06-11T12:22:10Z</time>
      </trkpt>
      <trkpt lat="46.02744" lon="6.77398">
        <ele>993</ele>
        <time>2019-06-11T12:22:10Z</time>
      </trkpt>
      <trkpt lat="46.02736" lon="6.77399">
        <ele>996</ele>
        <time>2019-06-11T12:22:12Z</time>
      </trkpt>
      <trkpt lat="46.02727" lon="6.77396">
        <ele>999</ele>
        <time>2019-06-11T12:22:13Z</time>
      </trkpt>
      <trkpt lat="46.0272" lon="6.77389">
        <ele>1002</ele>
        <time>2019-06-11T12:22:15Z</time>
      </trkpt>
      <trkpt lat="46.02713" lon="6.77379">
        <ele>1005</ele>
        <time>2019-06-11T12:22:16Z</time>
      </trkpt>
      <trkpt lat="46.02703" lon="6.77348">
        <ele>1013</ele>
        <time>2019-06-11T12:22:21Z</time>
      </trkpt>
      <trkpt lat="46.02694" lon="6.7734">
        <ele>1018</ele>
        <time>2019-06-11T12:22:23Z</time>
      </trkpt>
      <trkpt lat="46.02691" lon="6.7734">
        <ele>1019</ele>
        <time>2019-06-11T12:22:23Z</time>
      </trkpt>
      <trkpt lat="46.02685" lon="6.77343">
        <ele>1021</ele>
        <time>2019-06-11T12:22:24Z</time>
      </trkpt>
      <trkpt lat="46.02681" lon="6.77352">
        <ele>1021</ele>
        <time>2019-06-11T12:22:26Z</time>
      </trkpt>
      <trkpt lat="46.02676" lon="6.77385">
        <ele>1018</ele>
        <time>2019-06-11T12:22:30Z</time>
      </trkpt>
      <trkpt lat="46.02676" lon="6.77427">
        <ele>1012</ele>
        <time>2019-06-11T12:22:35Z</time>
      </trkpt>
      <trkpt lat="46.02667" lon="6.77478">
        <ele>1015</ele>
        <time>2019-06-11T12:22:41Z</time>
      </trkpt>
      <trkpt lat="46.02653" lon="6.77524">
        <ele>1017</ele>
        <time>2019-06-11T12:22:48Z</time>
      </trkpt>
      <trkpt lat="46.02648" lon="6.77534">
        <ele>1017</ele>
        <time>2019-06-11T12:22:49Z</time>
      </trkpt>
      <trkpt lat="46.02611" lon="6.77587">
        <ele>1024</ele>
        <time>2019-06-11T12:22:58Z</time>
      </trkpt>
      <trkpt lat="46.02599" lon="6.77595">
        <ele>1027</ele>
        <time>2019-06-11T12:23:01Z</time>
      </trkpt>
      <trkpt lat="46.02569" lon="6.7759">
        <ele>1034</ele>
        <time>2019-06-11T12:23:06Z</time>
      </trkpt>
      <trkpt lat="46.02563" lon="6.77585">
        <ele>1034</ele>
        <time>2019-06-11T12:23:07Z</time>
      </trkpt>
      <trkpt lat="46.0256" lon="6.77575">
        <ele>1035</ele>
        <time>2019-06-11T12:23:09Z</time>
      </trkpt>
      <trkpt lat="46.02561" lon="6.77566">
        <ele>1035</ele>
        <time>2019-06-11T12:23:10Z</time>
      </trkpt>
      <trkpt lat="46.02566" lon="6.7756">
        <ele>1034</ele>
        <time>2019-06-11T12:23:11Z</time>
      </trkpt>
      <trkpt lat="46.02574" lon="6.77557">
        <ele>1033</ele>
        <time>2019-06-11T12:23:12Z</time>
      </trkpt>
      <trkpt lat="46.02586" lon="6.77558">
        <ele>1030</ele>
        <time>2019-06-11T12:23:15Z</time>
      </trkpt>
      <trkpt lat="46.02592" lon="6.77554">
        <ele>1029</ele>
        <time>2019-06-11T12:23:16Z</time>
      </trkpt>
      <trkpt lat="46.02597" lon="6.77541">
        <ele>1028</ele>
        <time>2019-06-11T12:23:18Z</time>
      </trkpt>
      <trkpt lat="46.02607" lon="6.77483">
        <ele>1029</ele>
        <time>2019-06-11T12:23:25Z</time>
      </trkpt>
      <trkpt lat="46.02605" lon="6.7747">
        <ele>1030</ele>
        <time>2019-06-11T12:23:27Z</time>
      </trkpt>
      <trkpt lat="46.02601" lon="6.77463">
        <ele>1031</ele>
        <time>2019-06-11T12:23:28Z</time>
      </trkpt>
      <trkpt lat="46.02595" lon="6.77459">
        <ele>1033</ele>
        <time>2019-06-11T12:23:29Z</time>
      </trkpt>
      <trkpt lat="46.02587" lon="6.77461">
        <ele>1035</ele>
        <time>2019-06-11T12:23:30Z</time>
      </trkpt>
      <trkpt lat="46.02583" lon="6.77464">
        <ele>1036</ele>
        <time>2019-06-11T12:23:31Z</time>
      </trkpt>
      <trkpt lat="46.02562" lon="6.77499">
        <ele>1035</ele>
        <time>2019-06-11T12:23:37Z</time>
      </trkpt>
      <trkpt lat="46.02553" lon="6.77507">
        <ele>1036</ele>
        <time>2019-06-11T12:23:39Z</time>
      </trkpt>
      <trkpt lat="46.02482" lon="6.77548">
        <ele>1045</ele>
        <time>2019-06-11T12:23:52Z</time>
      </trkpt>
      <trkpt lat="46.02463" lon="6.77554">
        <ele>1047</ele>
        <time>2019-06-11T12:23:56Z</time>
      </trkpt>
      <trkpt lat="46.02391" lon="6.77563">
        <ele>1053</ele>
        <time>2019-06-11T12:24:09Z</time>
      </trkpt>
      <trkpt lat="46.02382" lon="6.77569">
        <ele>1054</ele>
        <time>2019-06-11T12:24:10Z</time>
      </trkpt>
      <trkpt lat="46.02368" lon="6.77595">
        <ele>1056</ele>
        <time>2019-06-11T12:24:15Z</time>
      </trkpt>
      <trkpt lat="46.02361" lon="6.77603">
        <ele>1056</ele>
        <time>2019-06-11T12:24:16Z</time>
      </trkpt>
      <trkpt lat="46.02352" lon="6.77605">
        <ele>1057</ele>
        <time>2019-06-11T12:24:18Z</time>
      </trkpt>
      <trkpt lat="46.02347" lon="6.77603">
        <ele>1058</ele>
        <time>2019-06-11T12:24:19Z</time>
      </trkpt>
      <trkpt lat="46.02341" lon="6.77593">
        <ele>1059</ele>
        <time>2019-06-11T12:24:20Z</time>
      </trkpt>
      <trkpt lat="46.02339" lon="6.7758">
        <ele>1060</ele>
        <time>2019-06-11T12:24:22Z</time>
      </trkpt>
      <trkpt lat="46.02356" lon="6.77505">
        <ele>1061</ele>
        <time>2019-06-11T12:24:32Z</time>
      </trkpt>
      <trkpt lat="46.02361" lon="6.77456">
        <ele>1069</ele>
        <time>2019-06-11T12:24:38Z</time>
      </trkpt>
      <trkpt lat="46.02367" lon="6.77429">
        <ele>1073</ele>
        <time>2019-06-11T12:24:41Z</time>
      </trkpt>
      <trkpt lat="46.0237" lon="6.77422">
        <ele>1074</ele>
        <time>2019-06-11T12:24:42Z</time>
      </trkpt>
      <trkpt lat="46.02374" lon="6.77418">
        <ele>1074</ele>
        <time>2019-06-11T12:24:43Z</time>
      </trkpt>
      <trkpt lat="46.02408" lon="6.77408">
        <ele>1073</ele>
        <time>2019-06-11T12:24:49Z</time>
      </trkpt>
      <trkpt lat="46.02413" lon="6.77404">
        <ele>1074</ele>
        <time>2019-06-11T12:24:50Z</time>
      </trkpt>
      <trkpt lat="46.02434" lon="6.77381">
        <ele>1078</ele>
        <time>2019-06-11T12:24:55Z</time>
      </trkpt>
      <trkpt lat="46.02437" lon="6.77371">
        <ele>1081</ele>
        <time>2019-06-11T12:24:56Z</time>
      </trkpt>
      <trkpt lat="46.02434" lon="6.77362">
        <ele>1085</ele>
        <time>2019-06-11T12:24:58Z</time>
      </trkpt>
      <trkpt lat="46.02428" lon="6.77361">
        <ele>1087</ele>
        <time>2019-06-11T12:24:59Z</time>
      </trkpt>
      <trkpt lat="46.02402" lon="6.77385">
        <ele>1082</ele>
        <time>2019-06-11T12:25:04Z</time>
      </trkpt>
      <trkpt lat="46.02389" lon="6.7739">
        <ele>1082</ele>
        <time>2019-06-11T12:25:07Z</time>
      </trkpt>
      <trkpt lat="46.0238" lon="6.77388">
        <ele>1083</ele>
        <time>2019-06-11T12:25:08Z</time>
      </trkpt>
      <trkpt lat="46.02339" lon="6.77362">
        <ele>1094</ele>
        <time>2019-06-11T12:25:16Z</time>
      </trkpt>
      <trkpt lat="46.02329" lon="6.77359">
        <ele>1096</ele>
        <time>2019-06-11T12:25:18Z</time>
      </trkpt>
      <trkpt lat="46.02323" lon="6.7736">
        <ele>1098</ele>
        <time>2019-06-11T12:25:19Z</time>
      </trkpt>
      <trkpt lat="46.02313" lon="6.77367">
        <ele>1098</ele>
        <time>2019-06-11T12:25:21Z</time>
      </trkpt>
      <trkpt lat="46.02303" lon="6.77377">
        <ele>1098</ele>
        <time>2019-06-11T12:25:23Z</time>
      </trkpt>
      <trkpt lat="46.02295" lon="6.77391">
        <ele>1097</ele>
        <time>2019-06-11T12:25:25Z</time>
      </trkpt>
      <trkpt lat="46.02278" lon="6.77417">
        <ele>1095</ele>
        <time>2019-06-11T12:25:30Z</time>
      </trkpt>
      <trkpt lat="46.02272" lon="6.77431">
        <ele>1095</ele>
        <time>2019-06-11T12:25:32Z</time>
      </trkpt>
      <trkpt lat="46.02264" lon="6.77455">
        <ele>1095</ele>
        <time>2019-06-11T12:25:35Z</time>
      </trkpt>
      <trkpt lat="46.02252" lon="6.77524">
        <ele>1093</ele>
        <time>2019-06-11T12:25:44Z</time>
      </trkpt>
      <trkpt lat="46.02249" lon="6.77535">
        <ele>1093</ele>
        <time>2019-06-11T12:25:45Z</time>
      </trkpt>
      <trkpt lat="46.02245" lon="6.77539">
        <ele>1095</ele>
        <time>2019-06-11T12:25:46Z</time>
      </trkpt>
      <trkpt lat="46.02241" lon="6.7754">
        <ele>1097</ele>
        <time>2019-06-11T12:25:47Z</time>
      </trkpt>
      <trkpt lat="46.02238" lon="6.7754">
        <ele>1099</ele>
        <time>2019-06-11T12:25:48Z</time>
      </trkpt>
      <trkpt lat="46.02234" lon="6.77536">
        <ele>1101</ele>
        <time>2019-06-11T12:25:48Z</time>
      </trkpt>
      <trkpt lat="46.0223" lon="6.77525">
        <ele>1104</ele>
        <time>2019-06-11T12:25:50Z</time>
      </trkpt>
      <trkpt lat="46.02229" lon="6.77504">
        <ele>1106</ele>
        <time>2019-06-11T12:25:53Z</time>
      </trkpt>
      <trkpt lat="46.02233" lon="6.77438">
        <ele>1110</ele>
        <time>2019-06-11T12:26:01Z</time>
      </trkpt>
      <trkpt lat="46.0224" lon="6.77411">
        <ele>1109</ele>
        <time>2019-06-11T12:26:04Z</time>
      </trkpt>
      <trkpt lat="46.02257" lon="6.77373">
        <ele>1109</ele>
        <time>2019-06-11T12:26:10Z</time>
      </trkpt>
      <trkpt lat="46.02265" lon="6.77346">
        <ele>1113</ele>
        <time>2019-06-11T12:26:14Z</time>
      </trkpt>
      <trkpt lat="46.02269" lon="6.77328">
        <ele>1116</ele>
        <time>2019-06-11T12:26:16Z</time>
      </trkpt>
      <trkpt lat="46.02276" lon="6.7723">
        <ele>1124</ele>
        <time>2019-06-11T12:26:28Z</time>
      </trkpt>
      <trkpt lat="46.02281" lon="6.77213">
        <ele>1124</ele>
        <time>2019-06-11T12:26:30Z</time>
      </trkpt>
      <trkpt lat="46.02305" lon="6.77186">
        <ele>1124</ele>
        <time>2019-06-11T12:26:36Z</time>
      </trkpt>
      <trkpt lat="46.02317" lon="6.77169">
        <ele>1124</ele>
        <time>2019-06-11T12:26:39Z</time>
      </trkpt>
      <trkpt lat="46.02367" lon="6.77119">
        <ele>1125</ele>
        <time>2019-06-11T12:26:50Z</time>
      </trkpt>
      <trkpt lat="46.02376" lon="6.77106">
        <ele>1125</ele>
        <time>2019-06-11T12:26:52Z</time>
      </trkpt>
      <trkpt lat="46.02381" lon="6.77092">
        <ele>1125</ele>
        <time>2019-06-11T12:26:54Z</time>
      </trkpt>
      <trkpt lat="46.0238" lon="6.77074">
        <ele>1125</ele>
        <time>2019-06-11T12:26:56Z</time>
      </trkpt>
      <trkpt lat="46.02375" lon="6.77055">
        <ele>1125</ele>
        <time>2019-06-11T12:26:59Z</time>
      </trkpt>
      <trkpt lat="46.02361" lon="6.77017">
        <ele>1125</ele>
        <time>2019-06-11T12:27:04Z</time>
      </trkpt>
      <trkpt lat="46.02355" lon="6.77009">
        <ele>1125</ele>
        <time>2019-06-11T12:27:05Z</time>
      </trkpt>
      <trkpt lat="46.02342" lon="6.77004">
        <ele>1126</ele>
        <time>2019-06-11T12:27:08Z</time>
      </trkpt>
      <trkpt lat="46.02323" lon="6.77014">
        <ele>1126</ele>
        <time>2019-06-11T12:27:11Z</time>
      </trkpt>
      <trkpt lat="46.02307" lon="6.77014">
        <ele>1128</ele>
        <time>2019-06-11T12:27:14Z</time>
      </trkpt>
      <trkpt lat="46.02257" lon="6.77001">
        <ele>1134</ele>
        <time>2019-06-11T12:27:23Z</time>
      </trkpt>
      <trkpt lat="46.02247" lon="6.76996">
        <ele>1136</ele>
        <time>2019-06-11T12:27:25Z</time>
      </trkpt>
      <trkpt lat="46.02239" lon="6.76996">
        <ele>1138</ele>
        <time>2019-06-11T12:27:27Z</time>
      </trkpt>
      <trkpt lat="46.02226" lon="6.77002">
        <ele>1140</ele>
        <time>2019-06-11T12:27:29Z</time>
      </trkpt>
      <trkpt lat="46.02206" lon="6.77022">
        <ele>1145</ele>
        <time>2019-06-11T12:27:33Z</time>
      </trkpt>
      <trkpt lat="46.02193" lon="6.77044">
        <ele>1147</ele>
        <time>2019-06-11T12:27:37Z</time>
      </trkpt>
      <trkpt lat="46.02177" lon="6.77081">
        <ele>1150</ele>
        <time>2019-06-11T12:27:42Z</time>
      </trkpt>
      <trkpt lat="46.02173" lon="6.77087">
        <ele>1152</ele>
        <time>2019-06-11T12:27:43Z</time>
      </trkpt>
      <trkpt lat="46.02166" lon="6.77092">
        <ele>1154</ele>
        <time>2019-06-11T12:27:45Z</time>
      </trkpt>
      <trkpt lat="46.02158" lon="6.77088">
        <ele>1158</ele>
        <time>2019-06-11T12:27:46Z</time>
      </trkpt>
      <trkpt lat="46.02155" lon="6.77084">
        <ele>1159</ele>
        <time>2019-06-11T12:27:47Z</time>
      </trkpt>
      <trkpt lat="46.02153" lon="6.77075">
        <ele>1160</ele>
        <time>2019-06-11T12:27:48Z</time>
      </trkpt>
      <trkpt lat="46.02153" lon="6.77063">
        <ele>1160</ele>
        <time>2019-06-11T12:27:50Z</time>
      </trkpt>
      <trkpt lat="46.02165" lon="6.77018">
        <ele>1154</ele>
        <time>2019-06-11T12:27:55Z</time>
      </trkpt>
      <trkpt lat="46.02171" lon="6.76937">
        <ele>1159</ele>
        <time>2019-06-11T12:28:06Z</time>
      </trkpt>
      <trkpt lat="46.02177" lon="6.76915">
        <ele>1159</ele>
        <time>2019-06-11T12:28:08Z</time>
      </trkpt>
      <trkpt lat="46.02192" lon="6.76892">
        <ele>1157</ele>
        <time>2019-06-11T12:28:12Z</time>
      </trkpt>
      <trkpt lat="46.02193" lon="6.76879">
        <ele>1158</ele>
        <time>2019-06-11T12:28:14Z</time>
      </trkpt>
      <trkpt lat="46.0219" lon="6.76873">
        <ele>1159</ele>
        <time>2019-06-11T12:28:15Z</time>
      </trkpt>
      <trkpt lat="46.02183" lon="6.76867">
        <ele>1161</ele>
        <time>2019-06-11T12:28:16Z</time>
      </trkpt>
      <trkpt lat="46.02175" lon="6.76866">
        <ele>1163</ele>
        <time>2019-06-11T12:28:18Z</time>
      </trkpt>
      <trkpt lat="46.0217" lon="6.76869">
        <ele>1164</ele>
        <time>2019-06-11T12:28:19Z</time>
      </trkpt>
      <trkpt lat="46.02159" lon="6.76884">
        <ele>1167</ele>
        <time>2019-06-11T12:28:21Z</time>
      </trkpt>
      <trkpt lat="46.02152" lon="6.769">
        <ele>1168</ele>
        <time>2019-06-11T12:28:24Z</time>
      </trkpt>
      <trkpt lat="46.02147" lon="6.76917">
        <ele>1169</ele>
        <time>2019-06-11T12:28:26Z</time>
      </trkpt>
      <trkpt lat="46.02139" lon="6.76953">
        <ele>1169</ele>
        <time>2019-06-11T12:28:31Z</time>
      </trkpt>
      <trkpt lat="46.02133" lon="6.76963">
        <ele>1170</ele>
        <time>2019-06-11T12:28:32Z</time>
      </trkpt>
      <trkpt lat="46.0213" lon="6.76966">
        <ele>1171</ele>
        <time>2019-06-11T12:28:33Z</time>
      </trkpt>
      <trkpt lat="46.02118" lon="6.76968">
        <ele>1176</ele>
        <time>2019-06-11T12:28:35Z</time>
      </trkpt>
      <trkpt lat="46.02112" lon="6.7696">
        <ele>1179</ele>
        <time>2019-06-11T12:28:37Z</time>
      </trkpt>
      <trkpt lat="46.02111" lon="6.76945">
        <ele>1180</ele>
        <time>2019-06-11T12:28:38Z</time>
      </trkpt>
      <trkpt lat="46.02114" lon="6.7692">
        <ele>1181</ele>
        <time>2019-06-11T12:28:42Z</time>
      </trkpt>
      <trkpt lat="46.02123" lon="6.76887">
        <ele>1179</ele>
        <time>2019-06-11T12:28:46Z</time>
      </trkpt>
      <trkpt lat="46.0213" lon="6.76846">
        <ele>1178</ele>
        <time>2019-06-11T12:28:51Z</time>
      </trkpt>
      <trkpt lat="46.02132" lon="6.76825">
        <ele>1178</ele>
        <time>2019-06-11T12:28:54Z</time>
      </trkpt>
      <trkpt lat="46.0213" lon="6.76805">
        <ele>1180</ele>
        <time>2019-06-11T12:28:56Z</time>
      </trkpt>
      <trkpt lat="46.02125" lon="6.768">
        <ele>1181</ele>
        <time>2019-06-11T12:28:57Z</time>
      </trkpt>
      <trkpt lat="46.02119" lon="6.768">
        <ele>1183</ele>
        <time>2019-06-11T12:28:58Z</time>
      </trkpt>
      <trkpt lat="46.02103" lon="6.76815">
        <ele>1187</ele>
        <time>2019-06-11T12:29:02Z</time>
      </trkpt>
      <trkpt lat="46.02119" lon="6.768">
        <ele>1183</ele>
        <time>2019-06-11T12:29:05Z</time>
      </trkpt>
      <trkpt lat="46.02125" lon="6.768">
        <ele>1181</ele>
        <time>2019-06-11T12:29:06Z</time>
      </trkpt>
      <trkpt lat="46.0213" lon="6.76805">
        <ele>1180</ele>
        <time>2019-06-11T12:29:07Z</time>
      </trkpt>
      <trkpt lat="46.02131" lon="6.76809">
        <ele>1179</ele>
        <time>2019-06-11T12:29:08Z</time>
      </trkpt>
      <trkpt lat="46.02132" lon="6.76825">
        <ele>1178</ele>
        <time>2019-06-11T12:29:10Z</time>
      </trkpt>
      <trkpt lat="46.0213" lon="6.76846">
        <ele>1178</ele>
        <time>2019-06-11T12:29:13Z</time>
      </trkpt>
      <trkpt lat="46.02123" lon="6.76887">
        <ele>1179</ele>
        <time>2019-06-11T12:29:18Z</time>
      </trkpt>
      <trkpt lat="46.02114" lon="6.7692">
        <ele>1181</ele>
        <time>2019-06-11T12:29:22Z</time>
      </trkpt>
      <trkpt lat="46.02111" lon="6.76945">
        <ele>1180</ele>
        <time>2019-06-11T12:29:25Z</time>
      </trkpt>
      <trkpt lat="46.02112" lon="6.7696">
        <ele>1179</ele>
        <time>2019-06-11T12:29:27Z</time>
      </trkpt>
      <trkpt lat="46.02118" lon="6.76968">
        <ele>1176</ele>
        <time>2019-06-11T12:29:29Z</time>
      </trkpt>
      <trkpt lat="46.0213" lon="6.76966">
        <ele>1171</ele>
        <time>2019-06-11T12:29:31Z</time>
      </trkpt>
      <trkpt lat="46.02133" lon="6.76963">
        <ele>1170</ele>
        <time>2019-06-11T12:29:31Z</time>
      </trkpt>
      <trkpt lat="46.02139" lon="6.76953">
        <ele>1169</ele>
        <time>2019-06-11T12:29:33Z</time>
      </trkpt>
      <trkpt lat="46.02147" lon="6.76917">
        <ele>1169</ele>
        <time>2019-06-11T12:29:38Z</time>
      </trkpt>
      <trkpt lat="46.02152" lon="6.769">
        <ele>1168</ele>
        <time>2019-06-11T12:29:40Z</time>
      </trkpt>
      <trkpt lat="46.02159" lon="6.76884">
        <ele>1167</ele>
        <time>2019-06-11T12:29:42Z</time>
      </trkpt>
      <trkpt lat="46.0217" lon="6.76869">
        <ele>1164</ele>
        <time>2019-06-11T12:29:45Z</time>
      </trkpt>
      <trkpt lat="46.02175" lon="6.76866">
        <ele>1163</ele>
        <time>2019-06-11T12:29:46Z</time>
      </trkpt>
      <trkpt lat="46.02183" lon="6.76867">
        <ele>1161</ele>
        <time>2019-06-11T12:29:47Z</time>
      </trkpt>
      <trkpt lat="46.0219" lon="6.76873">
        <ele>1159</ele>
        <time>2019-06-11T12:29:49Z</time>
      </trkpt>
      <trkpt lat="46.02193" lon="6.76879">
        <ele>1158</ele>
        <time>2019-06-11T12:29:50Z</time>
      </trkpt>
      <trkpt lat="46.02192" lon="6.76892">
        <ele>1157</ele>
        <time>2019-06-11T12:29:51Z</time>
      </trkpt>
      <trkpt lat="46.02177" lon="6.76915">
        <ele>1159</ele>
        <time>2019-06-11T12:29:55Z</time>
      </trkpt>
      <trkpt lat="46.02171" lon="6.76937">
        <ele>1159</ele>
        <time>2019-06-11T12:29:58Z</time>
      </trkpt>
      <trkpt lat="46.02165" lon="6.77018">
        <ele>1154</ele>
        <time>2019-06-11T12:30:08Z</time>
      </trkpt>
      <trkpt lat="46.02153" lon="6.77063">
        <ele>1160</ele>
        <time>2019-06-11T12:30:14Z</time>
      </trkpt>
      <trkpt lat="46.02153" lon="6.77075">
        <ele>1160</ele>
        <time>2019-06-11T12:30:16Z</time>
      </trkpt>
      <trkpt lat="46.02155" lon="6.77084">
        <ele>1159</ele>
        <time>2019-06-11T12:30:17Z</time>
      </trkpt>
      <trkpt lat="46.02158" lon="6.77088">
        <ele>1158</ele>
        <time>2019-06-11T12:30:18Z</time>
      </trkpt>
      <trkpt lat="46.02166" lon="6.77092">
        <ele>1154</ele>
        <time>2019-06-11T12:30:19Z</time>
      </trkpt>
      <trkpt lat="46.02173" lon="6.77087">
        <ele>1152</ele>
        <time>2019-06-11T12:30:20Z</time>
      </trkpt>
      <trkpt lat="46.02177" lon="6.77081">
        <ele>1150</ele>
        <time>2019-06-11T12:30:22Z</time>
      </trkpt>
      <trkpt lat="46.02193" lon="6.77044">
        <ele>1147</ele>
        <time>2019-06-11T12:30:27Z</time>
      </trkpt>
      <trkpt lat="46.02206" lon="6.77022">
        <ele>1145</ele>
        <time>2019-06-11T12:30:30Z</time>
      </trkpt>
      <trkpt lat="46.02226" lon="6.77002">
        <ele>1140</ele>
        <time>2019-06-11T12:30:35Z</time>
      </trkpt>
      <trkpt lat="46.02239" lon="6.76996">
        <ele>1138</ele>
        <time>2019-06-11T12:30:37Z</time>
      </trkpt>
      <trkpt lat="46.02247" lon="6.76996">
        <ele>1136</ele>
        <time>2019-06-11T12:30:39Z</time>
      </trkpt>
      <trkpt lat="46.02257" lon="6.77001">
        <ele>1134</ele>
        <time>2019-06-11T12:30:41Z</time>
      </trkpt>
      <trkpt lat="46.02307" lon="6.77014">
        <ele>1128</ele>
        <time>2019-06-11T12:30:50Z</time>
      </trkpt>
      <trkpt lat="46.02323" lon="6.77014">
        <ele>1126</ele>
        <time>2019-06-11T12:30:52Z</time>
      </trkpt>
      <trkpt lat="46.02342" lon="6.77004">
        <ele>1126</ele>
        <time>2019-06-11T12:30:56Z</time>
      </trkpt>
      <trkpt lat="46.02355" lon="6.77009">
        <ele>1125</ele>
        <time>2019-06-11T12:30:58Z</time>
      </trkpt>
      <trkpt lat="46.02361" lon="6.77017">
        <ele>1125</ele>
        <time>2019-06-11T12:31:00Z</time>
      </trkpt>
      <trkpt lat="46.02375" lon="6.77055">
        <ele>1125</ele>
        <time>2019-06-11T12:31:05Z</time>
      </trkpt>
      <trkpt lat="46.0238" lon="6.77074">
        <ele>1125</ele>
        <time>2019-06-11T12:31:08Z</time>
      </trkpt>
      <trkpt lat="46.02381" lon="6.77092">
        <ele>1125</ele>
        <time>2019-06-11T12:31:10Z</time>
      </trkpt>
      <trkpt lat="46.02376" lon="6.77106">
        <ele>1125</ele>
        <time>2019-06-11T12:31:12Z</time>
      </trkpt>
      <trkpt lat="46.02367" lon="6.77119">
        <ele>1125</ele>
        <time>2019-06-11T12:31:14Z</time>
      </trkpt>
      <trkpt lat="46.02317" lon="6.77169">
        <ele>1124</ele>
        <time>2019-06-11T12:31:25Z</time>
      </trkpt>
      <trkpt lat="46.02305" lon="6.77186">
        <ele>1124</ele>
        <time>2019-06-11T12:31:28Z</time>
      </trkpt>
      <trkpt lat="46.02281" lon="6.77213">
        <ele>1124</ele>
        <time>2019-06-11T12:31:33Z</time>
      </trkpt>
      <trkpt lat="46.02276" lon="6.7723">
        <ele>1124</ele>
        <time>2019-06-11T12:31:36Z</time>
      </trkpt>
      <trkpt lat="46.02269" lon="6.77328">
        <ele>1116</ele>
        <time>2019-06-11T12:31:48Z</time>
      </trkpt>
      <trkpt lat="46.02265" lon="6.77346">
        <ele>1113</ele>
        <time>2019-06-11T12:31:50Z</time>
      </trkpt>
      <trkpt lat="46.02257" lon="6.77373">
        <ele>1109</ele>
        <time>2019-06-11T12:31:54Z</time>
      </trkpt>
      <trkpt lat="46.0224" lon="6.77411">
        <ele>1109</ele>
        <time>2019-06-11T12:31:59Z</time>
      </trkpt>
      <trkpt lat="46.02233" lon="6.77438">
        <ele>1110</ele>
        <time>2019-06-11T12:32:03Z</time>
      </trkpt>
      <trkpt lat="46.02229" lon="6.77504">
        <ele>1106</ele>
        <time>2019-06-11T12:32:11Z</time>
      </trkpt>
      <trkpt lat="46.0223" lon="6.77525">
        <ele>1104</ele>
        <time>2019-06-11T12:32:14Z</time>
      </trkpt>
      <trkpt lat="46.02234" lon="6.77536">
        <ele>1101</ele>
        <time>2019-06-11T12:32:15Z</time>
      </trkpt>
      <trkpt lat="46.02238" lon="6.7754">
        <ele>1099</ele>
        <time>2019-06-11T12:32:16Z</time>
      </trkpt>
      <trkpt lat="46.02241" lon="6.7754">
        <ele>1097</ele>
        <time>2019-06-11T12:32:17Z</time>
      </trkpt>
      <trkpt lat="46.02245" lon="6.77539">
        <ele>1095</ele>
        <time>2019-06-11T12:32:17Z</time>
      </trkpt>
      <trkpt lat="46.02249" lon="6.77535">
        <ele>1093</ele>
        <time>2019-06-11T12:32:18Z</time>
      </trkpt>
      <trkpt lat="46.02252" lon="6.77524">
        <ele>1093</ele>
        <time>2019-06-11T12:32:20Z</time>
      </trkpt>
      <trkpt lat="46.02264" lon="6.77455">
        <ele>1095</ele>
        <time>2019-06-11T12:32:29Z</time>
      </trkpt>
      <trkpt lat="46.02272" lon="6.77431">
        <ele>1095</ele>
        <time>2019-06-11T12:32:32Z</time>
      </trkpt>
      <trkpt lat="46.02278" lon="6.77417">
        <ele>1095</ele>
        <time>2019-06-11T12:32:34Z</time>
      </trkpt>
      <trkpt lat="46.02295" lon="6.77391">
        <ele>1097</ele>
        <time>2019-06-11T12:32:38Z</time>
      </trkpt>
      <trkpt lat="46.02303" lon="6.77377">
        <ele>1098</ele>
        <time>2019-06-11T12:32:40Z</time>
      </trkpt>
      <trkpt lat="46.02313" lon="6.77367">
        <ele>1098</ele>
        <time>2019-06-11T12:32:43Z</time>
      </trkpt>
      <trkpt lat="46.02323" lon="6.7736">
        <ele>1098</ele>
        <time>2019-06-11T12:32:45Z</time>
      </trkpt>
      <trkpt lat="46.02329" lon="6.77359">
        <ele>1096</ele>
        <time>2019-06-11T12:32:46Z</time>
      </trkpt>
      <trkpt lat="46.02339" lon="6.77362">
        <ele>1094</ele>
        <time>2019-06-11T12:32:48Z</time>
      </trkpt>
      <trkpt lat="46.0238" lon="6.77388">
        <ele>1083</ele>
        <time>2019-06-11T12:32:55Z</time>
      </trkpt>
      <trkpt lat="46.02389" lon="6.7739">
        <ele>1082</ele>
        <time>2019-06-11T12:32:57Z</time>
      </trkpt>
      <trkpt lat="46.02402" lon="6.77385">
        <ele>1082</ele>
        <time>2019-06-11T12:32:59Z</time>
      </trkpt>
      <trkpt lat="46.02428" lon="6.77361">
        <ele>1087</ele>
        <time>2019-06-11T12:33:05Z</time>
      </trkpt>
      <trkpt lat="46.02434" lon="6.77362">
        <ele>1085</ele>
        <time>2019-06-11T12:33:06Z</time>
      </trkpt>
      <trkpt lat="46.02437" lon="6.77371">
        <ele>1081</ele>
        <time>2019-06-11T12:33:07Z</time>
      </trkpt>
      <trkpt lat="46.02434" lon="6.77381">
        <ele>1078</ele>
        <time>2019-06-11T12:33:09Z</time>
      </trkpt>
      <trkpt lat="46.02413" lon="6.77404">
        <ele>1074</ele>
        <time>2019-06-11T12:33:13Z</time>
      </trkpt>
      <trkpt lat="46.02408" lon="6.77408">
        <ele>1073</ele>
        <time>2019-06-11T12:33:14Z</time>
      </trkpt>
      <trkpt lat="46.02374" lon="6.77418">
        <ele>1074</ele>
        <time>2019-06-11T12:33:21Z</time>
      </trkpt>
      <trkpt lat="46.0237" lon="6.77422">
        <ele>1074</ele>
        <time>2019-06-11T12:33:21Z</time>
      </trkpt>
      <trkpt lat="46.02367" lon="6.77429">
        <ele>1073</ele>
        <time>2019-06-11T12:33:22Z</time>
      </trkpt>
      <trkpt lat="46.02361" lon="6.77456">
        <ele>1069</ele>
        <time>2019-06-11T12:33:26Z</time>
      </trkpt>
      <trkpt lat="46.02356" lon="6.77505">
        <ele>1061</ele>
        <time>2019-06-11T12:33:32Z</time>
      </trkpt>
      <trkpt lat="46.02339" lon="6.7758">
        <ele>1060</ele>
        <time>2019-06-11T12:33:42Z</time>
      </trkpt>
      <trkpt lat="46.02341" lon="6.77593">
        <ele>1059</ele>
        <time>2019-06-11T12:33:43Z</time>
      </trkpt>
      <trkpt lat="46.02347" lon="6.77603">
        <ele>1058</ele>
        <time>2019-06-11T12:33:45Z</time>
      </trkpt>
      <trkpt lat="46.02352" lon="6.77605">
        <ele>1057</ele>
        <time>2019-06-11T12:33:46Z</time>
      </trkpt>
      <trkpt lat="46.02361" lon="6.77603">
        <ele>1056</ele>
        <time>2019-06-11T12:33:48Z</time>
      </trkpt>
      <trkpt lat="46.02368" lon="6.77595">
        <ele>1056</ele>
        <time>2019-06-11T12:33:49Z</time>
      </trkpt>
      <trkpt lat="46.02382" lon="6.77569">
        <ele>1054</ele>
        <time>2019-06-11T12:33:53Z</time>
      </trkpt>
      <trkpt lat="46.02391" lon="6.77563">
        <ele>1053</ele>
        <time>2019-06-11T12:33:55Z</time>
      </trkpt>
      <trkpt lat="46.02463" lon="6.77554">
        <ele>1047</ele>
        <time>2019-06-11T12:34:08Z</time>
      </trkpt>
      <trkpt lat="46.02482" lon="6.77548">
        <ele>1045</ele>
        <time>2019-06-11T12:34:11Z</time>
      </trkpt>
      <trkpt lat="46.02553" lon="6.77507">
        <ele>1036</ele>
        <time>2019-06-11T12:34:25Z</time>
      </trkpt>
      <trkpt lat="46.02562" lon="6.77499">
        <ele>1035</ele>
        <time>2019-06-11T12:34:27Z</time>
      </trkpt>
      <trkpt lat="46.02583" lon="6.77464">
        <ele>1036</ele>
        <time>2019-06-11T12:34:33Z</time>
      </trkpt>
      <trkpt lat="46.02587" lon="6.77461">
        <ele>1035</ele>
        <time>2019-06-11T12:34:33Z</time>
      </trkpt>
      <trkpt lat="46.02595" lon="6.77459">
        <ele>1033</ele>
        <time>2019-06-11T12:34:35Z</time>
      </trkpt>
      <trkpt lat="46.02601" lon="6.77463">
        <ele>1031</ele>
        <time>2019-06-11T12:34:36Z</time>
      </trkpt>
      <trkpt lat="46.02605" lon="6.7747">
        <ele>1030</ele>
        <time>2019-06-11T12:34:37Z</time>
      </trkpt>
      <trkpt lat="46.02607" lon="6.77483">
        <ele>1029</ele>
        <time>2019-06-11T12:34:39Z</time>
      </trkpt>
      <trkpt lat="46.02597" lon="6.77541">
        <ele>1028</ele>
        <time>2019-06-11T12:34:46Z</time>
      </trkpt>
      <trkpt lat="46.02592" lon="6.77554">
        <ele>1029</ele>
        <time>2019-06-11T12:34:48Z</time>
      </trkpt>
      <trkpt lat="46.02586" lon="6.77558">
        <ele>1030</ele>
        <time>2019-06-11T12:34:49Z</time>
      </trkpt>
      <trkpt lat="46.02574" lon="6.77557">
        <ele>1033</ele>
        <time>2019-06-11T12:34:51Z</time>
      </trkpt>
      <trkpt lat="46.02566" lon="6.7756">
        <ele>1034</ele>
        <time>2019-06-11T12:34:53Z</time>
      </trkpt>
      <trkpt lat="46.02561" lon="6.77566">
        <ele>1035</ele>
        <time>2019-06-11T12:34:54Z</time>
      </trkpt>
      <trkpt lat="46.0256" lon="6.77575">
        <ele>1035</ele>
        <time>2019-06-11T12:34:55Z</time>
      </trkpt>
      <trkpt lat="46.02563" lon="6.77585">
        <ele>1034</ele>
        <time>2019-06-11T12:34:56Z</time>
      </trkpt>
      <trkpt lat="46.02569" lon="6.7759">
        <ele>1034</ele>
        <time>2019-06-11T12:34:58Z</time>
      </trkpt>
      <trkpt lat="46.02599" lon="6.77595">
        <ele>1027</ele>
        <time>2019-06-11T12:35:03Z</time>
      </trkpt>
      <trkpt lat="46.02611" lon="6.77587">
        <ele>1024</ele>
        <time>2019-06-11T12:35:05Z</time>
      </trkpt>
      <trkpt lat="46.02648" lon="6.77534">
        <ele>1017</ele>
        <time>2019-06-11T12:35:15Z</time>
      </trkpt>
      <trkpt lat="46.02653" lon="6.77524">
        <ele>1017</ele>
        <time>2019-06-11T12:35:16Z</time>
      </trkpt>
      <trkpt lat="46.02667" lon="6.77478">
        <ele>1015</ele>
        <time>2019-06-11T12:35:22Z</time>
      </trkpt>
      <trkpt lat="46.02676" lon="6.77427">
        <ele>1012</ele>
        <time>2019-06-11T12:35:29Z</time>
      </trkpt>
      <trkpt lat="46.02676" lon="6.77385">
        <ele>1018</ele>
        <time>2019-06-11T12:35:34Z</time>
      </trkpt>
      <trkpt lat="46.02681" lon="6.77352">
        <ele>1021</ele>
        <time>2019-06-11T12:35:38Z</time>
      </trkpt>
      <trkpt lat="46.02685" lon="6.77343">
        <ele>1021</ele>
        <time>2019-06-11T12:35:40Z</time>
      </trkpt>
      <trkpt lat="46.02691" lon="6.7734">
        <ele>1019</ele>
        <time>2019-06-11T12:35:41Z</time>
      </trkpt>
      <trkpt lat="46.02694" lon="6.7734">
        <ele>1018</ele>
        <time>2019-06-11T12:35:41Z</time>
      </trkpt>
      <trkpt lat="46.02703" lon="6.77348">
        <ele>1013</ele>
        <time>2019-06-11T12:35:43Z</time>
      </trkpt>
      <trkpt lat="46.02713" lon="6.77379">
        <ele>1005</ele>
        <time>2019-06-11T12:35:47Z</time>
      </trkpt>
      <trkpt lat="46.0272" lon="6.77389">
        <ele>1002</ele>
        <time>2019-06-11T12:35:49Z</time>
      </trkpt>
      <trkpt lat="46.02727" lon="6.77396">
        <ele>999</ele>
        <time>2019-06-11T12:35:51Z</time>
      </trkpt>
      <trkpt lat="46.02736" lon="6.77399">
        <ele>996</ele>
        <time>2019-06-11T12:35:52Z</time>
      </trkpt>
      <trkpt lat="46.02744" lon="6.77398">
        <ele>993</ele>
        <time>2019-06-11T12:35:54Z</time>
      </trkpt>
      <trkpt lat="46.02747" lon="6.77396">
        <ele>992</ele>
        <time>2019-06-11T12:35:54Z</time>
      </trkpt>
      <trkpt lat="46.02754" lon="6.77384">
        <ele>991</ele>
        <time>2019-06-11T12:35:56Z</time>
      </trkpt>
      <trkpt lat="46.02762" lon="6.77344">
        <ele>990</ele>
        <time>2019-06-11T12:36:01Z</time>
      </trkpt>
      <trkpt lat="46.02766" lon="6.77338">
        <ele>990</ele>
        <time>2019-06-11T12:36:02Z</time>
      </trkpt>
      <trkpt lat="46.02771" lon="6.77337">
        <ele>989</ele>
        <time>2019-06-11T12:36:03Z</time>
      </trkpt>
      <trkpt lat="46.02775" lon="6.77339">
        <ele>988</ele>
        <time>2019-06-11T12:36:04Z</time>
      </trkpt>
      <trkpt lat="46.02781" lon="6.77349">
        <ele>986</ele>
        <time>2019-06-11T12:36:06Z</time>
      </trkpt>
      <trkpt lat="46.02782" lon="6.77357">
        <ele>985</ele>
        <time>2019-06-11T12:36:07Z</time>
      </trkpt>
      <trkpt lat="46.0278" lon="6.77371">
        <ele>985</ele>
        <time>2019-06-11T12:36:08Z</time>
      </trkpt>
      <trkpt lat="46.02771" lon="6.77391">
        <ele>986</ele>
        <time>2019-06-11T12:36:11Z</time>
      </trkpt>
      <trkpt lat="46.0277" lon="6.77408">
        <ele>985</ele>
        <time>2019-06-11T12:36:13Z</time>
      </trkpt>
      <trkpt lat="46.02773" lon="6.77413">
        <ele>984</ele>
        <time>2019-06-11T12:36:14Z</time>
      </trkpt>
      <trkpt lat="46.02778" lon="6.77415">
        <ele>983</ele>
        <time>2019-06-11T12:36:15Z</time>
      </trkpt>
      <trkpt lat="46.02782" lon="6.77414">
        <ele>982</ele>
        <time>2019-06-11T12:36:16Z</time>
      </trkpt>
      <trkpt lat="46.02787" lon="6.7741">
        <ele>980</ele>
        <time>2019-06-11T12:36:17Z</time>
      </trkpt>
      <trkpt lat="46.02815" lon="6.77365">
        <ele>977</ele>
        <time>2019-06-11T12:36:24Z</time>
      </trkpt>
      <trkpt lat="46.02821" lon="6.77351">
        <ele>977</ele>
        <time>2019-06-11T12:36:26Z</time>
      </trkpt>
      <trkpt lat="46.02824" lon="6.77339">
        <ele>977</ele>
        <time>2019-06-11T12:36:28Z</time>
      </trkpt>
      <trkpt lat="46.02824" lon="6.77331">
        <ele>978</ele>
        <time>2019-06-11T12:36:29Z</time>
      </trkpt>
      <trkpt lat="46.02822" lon="6.77324">
        <ele>978</ele>
        <time>2019-06-11T12:36:30Z</time>
      </trkpt>
      <trkpt lat="46.02801" lon="6.7731">
        <ele>982</ele>
        <time>2019-06-11T12:36:34Z</time>
      </trkpt>
      <trkpt lat="46.02796" lon="6.77304">
        <ele>983</ele>
        <time>2019-06-11T12:36:35Z</time>
      </trkpt>
      <trkpt lat="46.02792" lon="6.77285">
        <ele>984</ele>
        <time>2019-06-11T12:36:38Z</time>
      </trkpt>
      <trkpt lat="46.02792" lon="6.77269">
        <ele>984</ele>
        <time>2019-06-11T12:36:40Z</time>
      </trkpt>
      <trkpt lat="46.02794" lon="6.77259">
        <ele>983</ele>
        <time>2019-06-11T12:36:41Z</time>
      </trkpt>
      <trkpt lat="46.02799" lon="6.77247">
        <ele>982</ele>
        <time>2019-06-11T12:36:43Z</time>
      </trkpt>
      <trkpt lat="46.02809" lon="6.77235">
        <ele>980</ele>
        <time>2019-06-11T12:36:45Z</time>
      </trkpt>
      <trkpt lat="46.02838" lon="6.77206">
        <ele>969</ele>
        <time>2019-06-11T12:36:51Z</time>
      </trkpt>
      <trkpt lat="46.02851" lon="6.77189">
        <ele>965</ele>
        <time>2019-06-11T12:36:54Z</time>
      </trkpt>
      <trkpt lat="46.02861" lon="6.77175">
        <ele>961</ele>
        <time>2019-06-11T12:36:57Z</time>
      </trkpt>
      <trkpt lat="46.02866" lon="6.77153">
        <ele>961</ele>
        <time>2019-06-11T12:37:00Z</time>
      </trkpt>
      <trkpt lat="46.02863" lon="6.77114">
        <ele>968</ele>
        <time>2019-06-11T12:37:05Z</time>
      </trkpt>
      <trkpt lat="46.02866" lon="6.77108">
        <ele>968</ele>
        <time>2019-06-11T12:37:05Z</time>
      </trkpt>
      <trkpt lat="46.02869" lon="6.77104">
        <ele>968</ele>
        <time>2019-06-11T12:37:06Z</time>
      </trkpt>
      <trkpt lat="46.02896" lon="6.77093">
        <ele>961</ele>
        <time>2019-06-11T12:37:11Z</time>
      </trkpt>
      <trkpt lat="46.02926" lon="6.77074">
        <ele>957</ele>
        <time>2019-06-11T12:37:17Z</time>
      </trkpt>
      <trkpt lat="46.02972" lon="6.77038">
        <ele>955</ele>
        <time>2019-06-11T12:37:26Z</time>
      </trkpt>
      <trkpt lat="46.0299" lon="6.77032">
        <ele>951</ele>
        <time>2019-06-11T12:37:30Z</time>
      </trkpt>
      <trkpt lat="46.03039" lon="6.77023">
        <ele>945</ele>
        <time>2019-06-11T12:37:38Z</time>
      </trkpt>
      <trkpt lat="46.03072" lon="6.77">
        <ele>947</ele>
        <time>2019-06-11T12:37:45Z</time>
      </trkpt>
      <trkpt lat="46.03076" lon="6.76999">
        <ele>947</ele>
        <time>2019-06-11T12:37:46Z</time>
      </trkpt>
      <trkpt lat="46.03097" lon="6.77003">
        <ele>944</ele>
        <time>2019-06-11T12:37:49Z</time>
      </trkpt>
      <trkpt lat="46.03125" lon="6.77015">
        <ele>937</ele>
        <time>2019-06-11T12:37:55Z</time>
      </trkpt>
      <trkpt lat="46.03135" lon="6.77017">
        <ele>936</ele>
        <time>2019-06-11T12:37:56Z</time>
      </trkpt>
      <trkpt lat="46.03197" lon="6.77015">
        <ele>925</ele>
        <time>2019-06-11T12:38:07Z</time>
      </trkpt>
      <trkpt lat="46.03208" lon="6.77011">
        <ele>923</ele>
        <time>2019-06-11T12:38:09Z</time>
      </trkpt>
      <trkpt lat="46.03227" lon="6.77001">
        <ele>921</ele>
        <time>2019-06-11T12:38:13Z</time>
      </trkpt>
      <trkpt lat="46.0324" lon="6.76988">
        <ele>921</ele>
        <time>2019-06-11T12:38:16Z</time>
      </trkpt>
      <trkpt lat="46.03264" lon="6.76944">
        <ele>928</ele>
        <time>2019-06-11T12:38:23Z</time>
      </trkpt>
      <trkpt lat="46.03271" lon="6.76937">
        <ele>927</ele>
        <time>2019-06-11T12:38:24Z</time>
      </trkpt>
      <trkpt lat="46.03278" lon="6.76935">
        <ele>925</ele>
        <time>2019-06-11T12:38:26Z</time>
      </trkpt>
      <trkpt lat="46.03293" lon="6.76941">
        <ele>916</ele>
        <time>2019-06-11T12:38:28Z</time>
      </trkpt>
      <trkpt lat="46.03303" lon="6.7694">
        <ele>912</ele>
        <time>2019-06-11T12:38:30Z</time>
      </trkpt>
      <trkpt lat="46.03332" lon="6.76915">
        <ele>904</ele>
        <time>2019-06-11T12:38:36Z</time>
      </trkpt>
      <trkpt lat="46.03411" lon="6.76806">
        <ele>897</ele>
        <time>2019-06-11T12:38:56Z</time>
      </trkpt>
      <trkpt lat="46.03417" lon="6.76802">
        <ele>895</ele>
        <time>2019-06-11T12:38:57Z</time>
      </trkpt>
      <trkpt lat="46.03424" lon="6.76806">
        <ele>893</ele>
        <time>2019-06-11T12:38:58Z</time>
      </trkpt>
      <trkpt lat="46.03428" lon="6.76815">
        <ele>890</ele>
        <time>2019-06-11T12:38:59Z</time>
      </trkpt>
      <trkpt lat="46.03429" lon="6.7682">
        <ele>889</ele>
        <time>2019-06-11T12:39:00Z</time>
      </trkpt>
      <trkpt lat="46.03425" lon="6.76832">
        <ele>888</ele>
        <time>2019-06-11T12:39:02Z</time>
      </trkpt>
      <trkpt lat="46.03359" lon="6.76946">
        <ele>890</ele>
        <time>2019-06-11T12:39:20Z</time>
      </trkpt>
      <trkpt lat="46.03335" lon="6.76967">
        <ele>892</ele>
        <time>2019-06-11T12:39:25Z</time>
      </trkpt>
      <trkpt lat="46.0333" lon="6.76977">
        <ele>891</ele>
        <time>2019-06-11T12:39:27Z</time>
      </trkpt>
      <trkpt lat="46.03329" lon="6.76984">
        <ele>890</ele>
        <time>2019-06-11T12:39:27Z</time>
      </trkpt>
      <trkpt lat="46.03326" lon="6.77101">
        <ele>868</ele>
        <time>2019-06-11T12:39:42Z</time>
      </trkpt>
      <trkpt lat="46.03323" lon="6.77115">
        <ele>866</ele>
        <time>2019-06-11T12:39:44Z</time>
      </trkpt>
      <trkpt lat="46.03281" lon="6.77185">
        <ele>869</ele>
        <time>2019-06-11T12:39:55Z</time>
      </trkpt>
      <trkpt lat="46.03281" lon="6.7719">
        <ele>870</ele>
        <time>2019-06-11T12:39:56Z</time>
      </trkpt>
      <trkpt lat="46.03292" lon="6.77222">
        <ele>871</ele>
        <time>2019-06-11T12:40:00Z</time>
      </trkpt>
      <trkpt lat="46.03298" lon="6.77229">
        <ele>871</ele>
        <time>2019-06-11T12:40:02Z</time>
      </trkpt>
      <trkpt lat="46.03307" lon="6.77229">
        <ele>869</ele>
        <time>2019-06-11T12:40:03Z</time>
      </trkpt>
      <trkpt lat="46.03362" lon="6.77199">
        <ele>859</ele>
        <time>2019-06-11T12:40:14Z</time>
      </trkpt>
      <trkpt lat="46.03377" lon="6.77193">
        <ele>856</ele>
        <time>2019-06-11T12:40:16Z</time>
      </trkpt>
      <trkpt lat="46.03419" lon="6.77191">
        <ele>852</ele>
        <time>2019-06-11T12:40:24Z</time>
      </trkpt>
      <trkpt lat="46.03426" lon="6.77193">
        <ele>852</ele>
        <time>2019-06-11T12:40:25Z</time>
      </trkpt>
      <trkpt lat="46.03442" lon="6.77201">
        <ele>853</ele>
        <time>2019-06-11T12:40:28Z</time>
      </trkpt>
      <trkpt lat="46.0345" lon="6.77211">
        <ele>854</ele>
        <time>2019-06-11T12:40:30Z</time>
      </trkpt>
      <trkpt lat="46.03476" lon="6.77276">
        <ele>866</ele>
        <time>2019-06-11T12:40:39Z</time>
      </trkpt>
      <trkpt lat="46.0348" lon="6.77282">
        <ele>867</ele>
        <time>2019-06-11T12:40:40Z</time>
      </trkpt>
      <trkpt lat="46.03495" lon="6.77294">
        <ele>870</ele>
        <time>2019-06-11T12:40:43Z</time>
      </trkpt>
      <trkpt lat="46.03517" lon="6.77303">
        <ele>870</ele>
        <time>2019-06-11T12:40:47Z</time>
      </trkpt>
      <trkpt lat="46.03641" lon="6.77367">
        <ele>872</ele>
        <time>2019-06-11T12:41:11Z</time>
      </trkpt>
      <trkpt lat="46.03653" lon="6.77369">
        <ele>871</ele>
        <time>2019-06-11T12:41:13Z</time>
      </trkpt>
      <trkpt lat="46.03665" lon="6.77367">
        <ele>868</ele>
        <time>2019-06-11T12:41:15Z</time>
      </trkpt>
      <trkpt lat="46.03728" lon="6.77345">
        <ele>862</ele>
        <time>2019-06-11T12:41:27Z</time>
      </trkpt>
      <trkpt lat="46.03743" lon="6.77338">
        <ele>860</ele>
        <time>2019-06-11T12:41:30Z</time>
      </trkpt>
      <trkpt lat="46.03779" lon="6.77311">
        <ele>857</ele>
        <time>2019-06-11T12:41:37Z</time>
      </trkpt>
      <trkpt lat="46.03792" lon="6.77307">
        <ele>857</ele>
        <time>2019-06-11T12:41:39Z</time>
      </trkpt>
      <trkpt lat="46.03808" lon="6.77306">
        <ele>858</ele>
        <time>2019-06-11T12:41:42Z</time>
      </trkpt>
      <trkpt lat="46.03849" lon="6.77315">
        <ele>861</ele>
        <time>2019-06-11T12:41:49Z</time>
      </trkpt>
      <trkpt lat="46.03873" lon="6.77315">
        <ele>861</ele>
        <time>2019-06-11T12:41:54Z</time>
      </trkpt>
      <trkpt lat="46.03885" lon="6.77311">
        <ele>860</ele>
        <time>2019-06-11T12:41:56Z</time>
      </trkpt>
      <trkpt lat="46.03913" lon="6.77298">
        <ele>858</ele>
        <time>2019-06-11T12:42:01Z</time>
      </trkpt>
      <trkpt lat="46.03987" lon="6.77251">
        <ele>861</ele>
        <time>2019-06-11T12:42:15Z</time>
      </trkpt>
      <trkpt lat="46.04008" lon="6.77234">
        <ele>862</ele>
        <time>2019-06-11T12:42:20Z</time>
      </trkpt>
      <trkpt lat="46.0405" lon="6.77177">
        <ele>861</ele>
        <time>2019-06-11T12:42:30Z</time>
      </trkpt>
      <trkpt lat="46.04095" lon="6.77129">
        <ele>860</ele>
        <time>2019-06-11T12:42:40Z</time>
      </trkpt>
      <trkpt lat="46.04159" lon="6.77085">
        <ele>857</ele>
        <time>2019-06-11T12:42:53Z</time>
      </trkpt>
      <trkpt lat="46.04187" lon="6.7707">
        <ele>856</ele>
        <time>2019-06-11T12:42:58Z</time>
      </trkpt>
      <trkpt lat="46.04222" lon="6.77059">
        <ele>855</ele>
        <time>2019-06-11T12:43:04Z</time>
      </trkpt>
      <trkpt lat="46.04291" lon="6.77048">
        <ele>853</ele>
        <time>2019-06-11T12:43:17Z</time>
      </trkpt>
      <trkpt lat="46.04329" lon="6.77048">
        <ele>852</ele>
        <time>2019-06-11T12:43:23Z</time>
      </trkpt>
      <trkpt lat="46.04392" lon="6.77037">
        <ele>849</ele>
        <time>2019-06-11T12:43:35Z</time>
      </trkpt>
      <trkpt lat="46.04451" lon="6.77019">
        <ele>845</ele>
        <time>2019-06-11T12:43:45Z</time>
      </trkpt>
      <trkpt lat="46.04556" lon="6.76977">
        <ele>837</ele>
        <time>2019-06-11T12:44:05Z</time>
      </trkpt>
      <trkpt lat="46.04594" lon="6.76964">
        <ele>833</ele>
        <time>2019-06-11T12:44:12Z</time>
      </trkpt>
      <trkpt lat="46.04634" lon="6.76954">
        <ele>830</ele>
        <time>2019-06-11T12:44:19Z</time>
      </trkpt>
      <trkpt lat="46.04677" lon="6.76949">
        <ele>827</ele>
        <time>2019-06-11T12:44:27Z</time>
      </trkpt>
      <trkpt lat="46.047" lon="6.76954">
        <ele>825</ele>
        <time>2019-06-11T12:44:31Z</time>
      </trkpt>
      <trkpt lat="46.04781" lon="6.76988">
        <ele>819</ele>
        <time>2019-06-11T12:44:46Z</time>
      </trkpt>
      <trkpt lat="46.04816" lon="6.77008">
        <ele>815</ele>
        <time>2019-06-11T12:44:52Z</time>
      </trkpt>
      <trkpt lat="46.04831" lon="6.7703">
        <ele>813</ele>
        <time>2019-06-11T12:44:56Z</time>
      </trkpt>
      <trkpt lat="46.04849" lon="6.77074">
        <ele>812</ele>
        <time>2019-06-11T12:45:03Z</time>
      </trkpt>
      <trkpt lat="46.04856" lon="6.77086">
        <ele>811</ele>
        <time>2019-06-11T12:45:05Z</time>
      </trkpt>
      <trkpt lat="46.04924" lon="6.77144">
        <ele>806</ele>
        <time>2019-06-11T12:45:19Z</time>
      </trkpt>
      <trkpt lat="46.05019" lon="6.77233">
        <ele>804</ele>
        <time>2019-06-11T12:45:39Z</time>
      </trkpt>
      <trkpt lat="46.05033" lon="6.77244">
        <ele>803</ele>
        <time>2019-06-11T12:45:42Z</time>
      </trkpt>
      <trkpt lat="46.05065" lon="6.77258">
        <ele>800</ele>
        <time>2019-06-11T12:45:48Z</time>
      </trkpt>
      <trkpt lat="46.05177" lon="6.77283">
        <ele>787</ele>
        <time>2019-06-11T12:46:08Z</time>
      </trkpt>
      <trkpt lat="46.05189" lon="6.77287">
        <ele>785</ele>
        <time>2019-06-11T12:46:10Z</time>
      </trkpt>
      <trkpt lat="46.05199" lon="6.77293">
        <ele>784</ele>
        <time>2019-06-11T12:46:12Z</time>
      </trkpt>
      <trkpt lat="46.05222" lon="6.77315">
        <ele>782</ele>
        <time>2019-06-11T12:46:17Z</time>
      </trkpt>
      <trkpt lat="46.05233" lon="6.7733">
        <ele>782</ele>
        <time>2019-06-11T12:46:19Z</time>
      </trkpt>
      <trkpt lat="46.05246" lon="6.77355">
        <ele>785</ele>
        <time>2019-06-11T12:46:23Z</time>
      </trkpt>
      <trkpt lat="46.053" lon="6.77477">
        <ele>787</ele>
        <time>2019-06-11T12:46:41Z</time>
      </trkpt>
      <trkpt lat="46.05305" lon="6.77484">
        <ele>786</ele>
        <time>2019-06-11T12:46:42Z</time>
      </trkpt>
      <trkpt lat="46.05316" lon="6.77494">
        <ele>782</ele>
        <time>2019-06-11T12:46:45Z</time>
      </trkpt>
      <trkpt lat="46.05332" lon="6.775">
        <ele>775</ele>
        <time>2019-06-11T12:46:48Z</time>
      </trkpt>
      <trkpt lat="46.05369" lon="6.77503">
        <ele>771</ele>
        <time>2019-06-11T12:46:54Z</time>
      </trkpt>
      <trkpt lat="46.0538" lon="6.77508">
        <ele>770</ele>
        <time>2019-06-11T12:46:56Z</time>
      </trkpt>
      <trkpt lat="46.05393" lon="6.77515">
        <ele>769</ele>
        <time>2019-06-11T12:46:59Z</time>
      </trkpt>
      <trkpt lat="46.05451" lon="6.77578">
        <ele>767</ele>
        <time>2019-06-11T12:47:12Z</time>
      </trkpt>
      <trkpt lat="46.05458" lon="6.77582">
        <ele>767</ele>
        <time>2019-06-11T12:47:13Z</time>
      </trkpt>
      <trkpt lat="46.05469" lon="6.77582">
        <ele>766</ele>
        <time>2019-06-11T12:47:15Z</time>
      </trkpt>
      <trkpt lat="46.05494" lon="6.77574">
        <ele>764</ele>
        <time>2019-06-11T12:47:20Z</time>
      </trkpt>
      <trkpt lat="46.05499" lon="6.77646">
        <ele>765</ele>
        <time>2019-06-11T12:47:28Z</time>
      </trkpt>
      <trkpt lat="46.05502" lon="6.77661">
        <ele>766</ele>
        <time>2019-06-11T12:47:30Z</time>
      </trkpt>
      <trkpt lat="46.0553" lon="6.77708">
        <ele>770</ele>
        <time>2019-06-11T12:47:38Z</time>
      </trkpt>
      <trkpt lat="46.05542" lon="6.77741">
        <ele>770</ele>
        <time>2019-06-11T12:47:43Z</time>
      </trkpt>
      <trkpt lat="46.05572" lon="6.77778">
        <ele>771</ele>
        <time>2019-06-11T12:47:50Z</time>
      </trkpt>
      <trkpt lat="46.05573" lon="6.77786">
        <ele>772</ele>
        <time>2019-06-11T12:47:51Z</time>
      </trkpt>
      <trkpt lat="46.05584" lon="6.77802">
        <ele>772</ele>
        <time>2019-06-11T12:47:53Z</time>
      </trkpt>
      <trkpt lat="46.05591" lon="6.77823">
        <ele>775</ele>
        <time>2019-06-11T12:47:56Z</time>
      </trkpt>
      <trkpt lat="46.05597" lon="6.77865">
        <ele>778</ele>
        <time>2019-06-11T12:48:02Z</time>
      </trkpt>
      <trkpt lat="46.05596" lon="6.77877">
        <ele>778</ele>
        <time>2019-06-11T12:48:03Z</time>
      </trkpt>
      <trkpt lat="46.05594" lon="6.77888">
        <ele>779</ele>
        <time>2019-06-11T12:48:05Z</time>
      </trkpt>
      <trkpt lat="46.05582" lon="6.77915">
        <ele>779</ele>
        <time>2019-06-11T12:48:09Z</time>
      </trkpt>
      <trkpt lat="46.05577" lon="6.77941">
        <ele>782</ele>
        <time>2019-06-11T12:48:12Z</time>
      </trkpt>
      <trkpt lat="46.05572" lon="6.77995">
        <ele>785</ele>
        <time>2019-06-11T12:48:19Z</time>
      </trkpt>
      <trkpt lat="46.05568" lon="6.78032">
        <ele>787</ele>
        <time>2019-06-11T12:48:23Z</time>
      </trkpt>
      <trkpt lat="46.0557" lon="6.78046">
        <ele>786</ele>
        <time>2019-06-11T12:48:25Z</time>
      </trkpt>
      <trkpt lat="46.05582" lon="6.78082">
        <ele>783</ele>
        <time>2019-06-11T12:48:30Z</time>
      </trkpt>
      <trkpt lat="46.0559" lon="6.7812">
        <ele>781</ele>
        <time>2019-06-11T12:48:35Z</time>
      </trkpt>
      <trkpt lat="46.05592" lon="6.78185">
        <ele>780</ele>
        <time>2019-06-11T12:48:43Z</time>
      </trkpt>
      <trkpt lat="46.05611" lon="6.78254">
        <ele>780</ele>
        <time>2019-06-11T12:48:52Z</time>
      </trkpt>
      <trkpt lat="46.05623" lon="6.78289">
        <ele>783</ele>
        <time>2019-06-11T12:48:57Z</time>
      </trkpt>
      <trkpt lat="46.05651" lon="6.78325">
        <ele>779</ele>
        <time>2019-06-11T12:49:03Z</time>
      </trkpt>
      <trkpt lat="46.05659" lon="6.7833">
        <ele>776</ele>
        <time>2019-06-11T12:49:05Z</time>
      </trkpt>
      <trkpt lat="46.05668" lon="6.78331">
        <ele>774</ele>
        <time>2019-06-11T12:49:07Z</time>
      </trkpt>
      <trkpt lat="46.05703" lon="6.78318">
        <ele>775</ele>
        <time>2019-06-11T12:49:13Z</time>
      </trkpt>
      <trkpt lat="46.05788" lon="6.78296">
        <ele>784</ele>
        <time>2019-06-11T12:49:28Z</time>
      </trkpt>
      <trkpt lat="46.05812" lon="6.78283">
        <ele>791</ele>
        <time>2019-06-11T12:49:33Z</time>
      </trkpt>
      <trkpt lat="46.05848" lon="6.78464">
        <ele>782</ele>
        <time>2019-06-11T12:49:56Z</time>
      </trkpt>
      <trkpt lat="46.05852" lon="6.78511">
        <ele>783</ele>
        <time>2019-06-11T12:50:02Z</time>
      </trkpt>
      <trkpt lat="46.05852" lon="6.78536">
        <ele>785</ele>
        <time>2019-06-11T12:50:05Z</time>
      </trkpt>
      <trkpt lat="46.05841" lon="6.78589">
        <ele>787</ele>
        <time>2019-06-11T12:50:12Z</time>
      </trkpt>
      <trkpt lat="46.05812" lon="6.78649">
        <ele>792</ele>
        <time>2019-06-11T12:50:21Z</time>
      </trkpt>
      <trkpt lat="46.05805" lon="6.78669">
        <ele>795</ele>
        <time>2019-06-11T12:50:24Z</time>
      </trkpt>
      <trkpt lat="46.05801" lon="6.78688">
        <ele>797</ele>
        <time>2019-06-11T12:50:26Z</time>
      </trkpt>
      <trkpt lat="46.05801" lon="6.78712">
        <ele>800</ele>
        <time>2019-06-11T12:50:29Z</time>
      </trkpt>
      <trkpt lat="46.05814" lon="6.78808">
        <ele>807</ele>
        <time>2019-06-11T12:50:41Z</time>
      </trkpt>
      <trkpt lat="46.05826" lon="6.78849">
        <ele>805</ele>
        <time>2019-06-11T12:50:47Z</time>
      </trkpt>
      <trkpt lat="46.0586" lon="6.78902">
        <ele>806</ele>
        <time>2019-06-11T12:50:56Z</time>
      </trkpt>
      <trkpt lat="46.05878" lon="6.78972">
        <ele>810</ele>
        <time>2019-06-11T12:51:05Z</time>
      </trkpt>
      <trkpt lat="46.05885" lon="6.78991">
        <ele>811</ele>
        <time>2019-06-11T12:51:08Z</time>
      </trkpt>
      <trkpt lat="46.05904" lon="6.79025">
        <ele>811</ele>
        <time>2019-06-11T12:51:13Z</time>
      </trkpt>
      <trkpt lat="46.05909" lon="6.7904">
        <ele>811</ele>
        <time>2019-06-11T12:51:15Z</time>
      </trkpt>
      <trkpt lat="46.05912" lon="6.79056">
        <ele>810</ele>
        <time>2019-06-11T12:51:17Z</time>
      </trkpt>
      <trkpt lat="46.05914" lon="6.79135">
        <ele>815</ele>
        <time>2019-06-11T12:51:27Z</time>
      </trkpt>
      <trkpt lat="46.0592" lon="6.79162">
        <ele>817</ele>
        <time>2019-06-11T12:51:30Z</time>
      </trkpt>
      <trkpt lat="46.05933" lon="6.79194">
        <ele>820</ele>
        <time>2019-06-11T12:51:35Z</time>
      </trkpt>
      <trkpt lat="46.05946" lon="6.79211">
        <ele>821</ele>
        <time>2019-06-11T12:51:38Z</time>
      </trkpt>
      <trkpt lat="46.05968" lon="6.79228">
        <ele>820</ele>
        <time>2019-06-11T12:51:42Z</time>
      </trkpt>
      <trkpt lat="46.06103" lon="6.79315">
        <ele>818</ele>
        <time>2019-06-11T12:52:09Z</time>
      </trkpt>
      <trkpt lat="46.06151" lon="6.79354">
        <ele>817</ele>
        <time>2019-06-11T12:52:19Z</time>
      </trkpt>
      <trkpt lat="46.06167" lon="6.79363">
        <ele>817</ele>
        <time>2019-06-11T12:52:22Z</time>
      </trkpt>
      <trkpt lat="46.06179" lon="6.79365">
        <ele>818</ele>
        <time>2019-06-11T12:52:24Z</time>
      </trkpt>
      <trkpt lat="46.06224" lon="6.79359">
        <ele>825</ele>
        <time>2019-06-11T12:52:32Z</time>
      </trkpt>
      <trkpt lat="46.06237" lon="6.7936">
        <ele>827</ele>
        <time>2019-06-11T12:52:34Z</time>
      </trkpt>
      <trkpt lat="46.06255" lon="6.79365">
        <ele>829</ele>
        <time>2019-06-11T12:52:37Z</time>
      </trkpt>
      <trkpt lat="46.06278" lon="6.79379">
        <ele>831</ele>
        <time>2019-06-11T12:52:42Z</time>
      </trkpt>
      <trkpt lat="46.06327" lon="6.79431">
        <ele>832</ele>
        <time>2019-06-11T12:52:53Z</time>
      </trkpt>
      <trkpt lat="46.06395" lon="6.79472">
        <ele>841</ele>
        <time>2019-06-11T12:53:06Z</time>
      </trkpt>
      <trkpt lat="46.06407" lon="6.79482">
        <ele>841</ele>
        <time>2019-06-11T12:53:08Z</time>
      </trkpt>
      <trkpt lat="46.06416" lon="6.79495">
        <ele>838</ele>
        <time>2019-06-11T12:53:11Z</time>
      </trkpt>
      <trkpt lat="46.06426" lon="6.79525">
        <ele>837</ele>
        <time>2019-06-11T12:53:15Z</time>
      </trkpt>
      <trkpt lat="46.06433" lon="6.79563">
        <ele>835</ele>
        <time>2019-06-11T12:53:19Z</time>
      </trkpt>
      <trkpt lat="46.06435" lon="6.79592">
        <ele>834</ele>
        <time>2019-06-11T12:53:23Z</time>
      </trkpt>
      <trkpt lat="46.06437" lon="6.79666">
        <ele>828</ele>
        <time>2019-06-11T12:53:32Z</time>
      </trkpt>
      <trkpt lat="46.06439" lon="6.79684">
        <ele>828</ele>
        <time>2019-06-11T12:53:34Z</time>
      </trkpt>
      <trkpt lat="46.06448" lon="6.79707">
        <ele>829</ele>
        <time>2019-06-11T12:53:38Z</time>
      </trkpt>
      <trkpt lat="46.0646" lon="6.79722">
        <ele>829</ele>
        <time>2019-06-11T12:53:41Z</time>
      </trkpt>
      <trkpt lat="46.06507" lon="6.79766">
        <ele>829</ele>
        <time>2019-06-11T12:53:51Z</time>
      </trkpt>
      <trkpt lat="46.06525" lon="6.79791">
        <ele>830</ele>
        <time>2019-06-11T12:53:55Z</time>
      </trkpt>
      <trkpt lat="46.06532" lon="6.79809">
        <ele>829</ele>
        <time>2019-06-11T12:53:58Z</time>
      </trkpt>
      <trkpt lat="46.06548" lon="6.79859">
        <ele>828</ele>
        <time>2019-06-11T12:54:04Z</time>
      </trkpt>
      <trkpt lat="46.06563" lon="6.79916">
        <ele>826</ele>
        <time>2019-06-11T12:54:12Z</time>
      </trkpt>
      <trkpt lat="46.06583" lon="6.79982">
        <ele>828</ele>
        <time>2019-06-11T12:54:21Z</time>
      </trkpt>
      <trkpt lat="46.06608" lon="6.80045">
        <ele>832</ele>
        <time>2019-06-11T12:54:30Z</time>
      </trkpt>
      <trkpt lat="46.0663" lon="6.80085">
        <ele>833</ele>
        <time>2019-06-11T12:54:36Z</time>
      </trkpt>
      <trkpt lat="46.06674" lon="6.80153">
        <ele>836</ele>
        <time>2019-06-11T12:54:47Z</time>
      </trkpt>
      <trkpt lat="46.06705" lon="6.80213">
        <ele>838</ele>
        <time>2019-06-11T12:54:57Z</time>
      </trkpt>
      <trkpt lat="46.06721" lon="6.80249">
        <ele>837</ele>
        <time>2019-06-11T12:55:02Z</time>
      </trkpt>
      <trkpt lat="46.06764" lon="6.80384">
        <ele>837</ele>
        <time>2019-06-11T12:55:20Z</time>
      </trkpt>
      <trkpt lat="46.06806" lon="6.80538">
        <ele>837</ele>
        <time>2019-06-11T12:55:41Z</time>
      </trkpt>
      <trkpt lat="46.06816" lon="6.80557">
        <ele>836</ele>
        <time>2019-06-11T12:55:44Z</time>
      </trkpt>
      <trkpt lat="46.06825" lon="6.80571">
        <ele>835</ele>
        <time>2019-06-11T12:55:46Z</time>
      </trkpt>
      <trkpt lat="46.06911" lon="6.80654">
        <ele>844</ele>
        <time>2019-06-11T12:56:04Z</time>
      </trkpt>
      <trkpt lat="46.06916" lon="6.80662">
        <ele>843</ele>
        <time>2019-06-11T12:56:06Z</time>
      </trkpt>
      <trkpt lat="46.06954" lon="6.80742">
        <ele>854</ele>
        <time>2019-06-11T12:56:18Z</time>
      </trkpt>
      <trkpt lat="46.06988" lon="6.80795">
        <ele>853</ele>
        <time>2019-06-11T12:56:27Z</time>
      </trkpt>
      <trkpt lat="46.06994" lon="6.80808">
        <ele>850</ele>
        <time>2019-06-11T12:56:29Z</time>
      </trkpt>
      <trkpt lat="46.07004" lon="6.80834">
        <ele>845</ele>
        <time>2019-06-11T12:56:32Z</time>
      </trkpt>
      <trkpt lat="46.07018" lon="6.80884">
        <ele>848</ele>
        <time>2019-06-11T12:56:39Z</time>
      </trkpt>
      <trkpt lat="46.07028" lon="6.80948">
        <ele>848</ele>
        <time>2019-06-11T12:56:47Z</time>
      </trkpt>
      <trkpt lat="46.07038" lon="6.8104">
        <ele>848</ele>
        <time>2019-06-11T12:56:59Z</time>
      </trkpt>
      <trkpt lat="46.07054" lon="6.81232">
        <ele>851</ele>
        <time>2019-06-11T12:57:22Z</time>
      </trkpt>
      <trkpt lat="46.0706" lon="6.8126">
        <ele>851</ele>
        <time>2019-06-11T12:57:26Z</time>
      </trkpt>
      <trkpt lat="46.07132" lon="6.81475">
        <ele>855</ele>
        <time>2019-06-11T12:57:55Z</time>
      </trkpt>
      <trkpt lat="46.07171" lon="6.8157">
        <ele>860</ele>
        <time>2019-06-11T12:58:09Z</time>
      </trkpt>
      <trkpt lat="46.07186" lon="6.81616">
        <ele>862</ele>
        <time>2019-06-11T12:58:15Z</time>
      </trkpt>
      <trkpt lat="46.07189" lon="6.8163">
        <ele>862</ele>
        <time>2019-06-11T12:58:17Z</time>
      </trkpt>
      <trkpt lat="46.07188" lon="6.8165">
        <ele>862</ele>
        <time>2019-06-11T12:58:20Z</time>
      </trkpt>
      <trkpt lat="46.07183" lon="6.81683">
        <ele>862</ele>
        <time>2019-06-11T12:58:24Z</time>
      </trkpt>
      <trkpt lat="46.07183" lon="6.81692">
        <ele>862</ele>
        <time>2019-06-11T12:58:25Z</time>
      </trkpt>
      <trkpt lat="46.07185" lon="6.81701">
        <ele>862</ele>
        <time>2019-06-11T12:58:26Z</time>
      </trkpt>
      <trkpt lat="46.072" lon="6.81735">
        <ele>863</ele>
        <time>2019-06-11T12:58:31Z</time>
      </trkpt>
      <trkpt lat="46.07229" lon="6.81775">
        <ele>863</ele>
        <time>2019-06-11T12:58:38Z</time>
      </trkpt>
      <trkpt lat="46.07257" lon="6.81855">
        <ele>867</ele>
        <time>2019-06-11T12:58:49Z</time>
      </trkpt>
      <trkpt lat="46.07365" lon="6.82117">
        <ele>876</ele>
        <time>2019-06-11T12:59:27Z</time>
      </trkpt>
      <trkpt lat="46.07372" lon="6.8214">
        <ele>876</ele>
        <time>2019-06-11T12:59:30Z</time>
      </trkpt>
      <trkpt lat="46.07375" lon="6.8216">
        <ele>876</ele>
        <time>2019-06-11T12:59:33Z</time>
      </trkpt>
      <trkpt lat="46.07375" lon="6.82174">
        <ele>876</ele>
        <time>2019-06-11T12:59:34Z</time>
      </trkpt>
      <trkpt lat="46.07372" lon="6.82195">
        <ele>875</ele>
        <time>2019-06-11T12:59:37Z</time>
      </trkpt>
      <trkpt lat="46.07359" lon="6.82241">
        <ele>874</ele>
        <time>2019-06-11T12:59:43Z</time>
      </trkpt>
      <trkpt lat="46.07357" lon="6.82266">
        <ele>875</ele>
        <time>2019-06-11T12:59:46Z</time>
      </trkpt>
      <trkpt lat="46.07356" lon="6.82389">
        <ele>882</ele>
        <time>2019-06-11T13:00:01Z</time>
      </trkpt>
      <trkpt lat="46.07359" lon="6.82416">
        <ele>884</ele>
        <time>2019-06-11T13:00:05Z</time>
      </trkpt>
      <trkpt lat="46.07364" lon="6.82431">
        <ele>886</ele>
        <time>2019-06-11T13:00:07Z</time>
      </trkpt>
      <trkpt lat="46.07371" lon="6.82444">
        <ele>887</ele>
        <time>2019-06-11T13:00:09Z</time>
      </trkpt>
      <trkpt lat="46.0738" lon="6.82454">
        <ele>888</ele>
        <time>2019-06-11T13:00:11Z</time>
      </trkpt>
      <trkpt lat="46.07409" lon="6.82473">
        <ele>889</ele>
        <time>2019-06-11T13:00:16Z</time>
      </trkpt>
      <trkpt lat="46.07424" lon="6.82486">
        <ele>889</ele>
        <time>2019-06-11T13:00:20Z</time>
      </trkpt>
      <trkpt lat="46.07432" lon="6.82499">
        <ele>889</ele>
        <time>2019-06-11T13:00:22Z</time>
      </trkpt>
      <trkpt lat="46.07442" lon="6.82523">
        <ele>889</ele>
        <time>2019-06-11T13:00:25Z</time>
      </trkpt>
      <trkpt lat="46.07448" lon="6.82548">
        <ele>891</ele>
        <time>2019-06-11T13:00:28Z</time>
      </trkpt>
      <trkpt lat="46.075" lon="6.82823">
        <ele>903</ele>
        <time>2019-06-11T13:01:04Z</time>
      </trkpt>
      <trkpt lat="46.07533" lon="6.82914">
        <ele>910</ele>
        <time>2019-06-11T13:01:16Z</time>
      </trkpt>
      <trkpt lat="46.07537" lon="6.82931">
        <ele>911</ele>
        <time>2019-06-11T13:01:19Z</time>
      </trkpt>
      <trkpt lat="46.0755" lon="6.83071">
        <ele>920</ele>
        <time>2019-06-11T13:01:36Z</time>
      </trkpt>
      <trkpt lat="46.07548" lon="6.83092">
        <ele>921</ele>
        <time>2019-06-11T13:01:39Z</time>
      </trkpt>
      <trkpt lat="46.07537" lon="6.8318">
        <ele>923</ele>
        <time>2019-06-11T13:01:50Z</time>
      </trkpt>
      <trkpt lat="46.07536" lon="6.83219">
        <ele>924</ele>
        <time>2019-06-11T13:01:54Z</time>
      </trkpt>
      <trkpt lat="46.07549" lon="6.8331">
        <ele>925</ele>
        <time>2019-06-11T13:02:06Z</time>
      </trkpt>
      <trkpt lat="46.0756" lon="6.83365">
        <ele>925</ele>
        <time>2019-06-11T13:02:13Z</time>
      </trkpt>
      <trkpt lat="46.07594" lon="6.83454">
        <ele>926</ele>
        <time>2019-06-11T13:02:26Z</time>
      </trkpt>
      <trkpt lat="46.07602" lon="6.83492">
        <ele>930</ele>
        <time>2019-06-11T13:02:30Z</time>
      </trkpt>
      <trkpt lat="46.07613" lon="6.83606">
        <ele>935</ele>
        <time>2019-06-11T13:02:45Z</time>
      </trkpt>
      <trkpt lat="46.07614" lon="6.83637">
        <ele>937</ele>
        <time>2019-06-11T13:02:48Z</time>
      </trkpt>
      <trkpt lat="46.0761" lon="6.83815">
        <ele>946</ele>
        <time>2019-06-11T13:03:10Z</time>
      </trkpt>
      <trkpt lat="46.07613" lon="6.83854">
        <ele>949</ele>
        <time>2019-06-11T13:03:15Z</time>
      </trkpt>
      <trkpt lat="46.07641" lon="6.84014">
        <ele>959</ele>
        <time>2019-06-11T13:03:36Z</time>
      </trkpt>
      <trkpt lat="46.0765" lon="6.84041">
        <ele>960</ele>
        <time>2019-06-11T13:03:39Z</time>
      </trkpt>
      <trkpt lat="46.07677" lon="6.84085">
        <ele>961</ele>
        <time>2019-06-11T13:03:47Z</time>
      </trkpt>
      <trkpt lat="46.07689" lon="6.841">
        <ele>961</ele>
        <time>2019-06-11T13:03:49Z</time>
      </trkpt>
      <trkpt lat="46.07703" lon="6.84103">
        <ele>961</ele>
        <time>2019-06-11T13:03:52Z</time>
      </trkpt>
      <trkpt lat="46.0772" lon="6.84099">
        <ele>961</ele>
        <time>2019-06-11T13:03:55Z</time>
      </trkpt>
      <trkpt lat="46.07738" lon="6.84084">
        <ele>960</ele>
        <time>2019-06-11T13:03:59Z</time>
      </trkpt>
      <trkpt lat="46.07748" lon="6.84072">
        <ele>961</ele>
        <time>2019-06-11T13:04:01Z</time>
      </trkpt>
      <trkpt lat="46.0776" lon="6.8406">
        <ele>962</ele>
        <time>2019-06-11T13:04:04Z</time>
      </trkpt>
      <trkpt lat="46.07775" lon="6.84051">
        <ele>963</ele>
        <time>2019-06-11T13:04:07Z</time>
      </trkpt>
      <trkpt lat="46.07791" lon="6.84049">
        <ele>964</ele>
        <time>2019-06-11T13:04:09Z</time>
      </trkpt>
      <trkpt lat="46.07775" lon="6.84051">
        <ele>963</ele>
        <time>2019-06-11T13:04:12Z</time>
      </trkpt>
      <trkpt lat="46.0776" lon="6.8406">
        <ele>962</ele>
        <time>2019-06-11T13:04:15Z</time>
      </trkpt>
      <trkpt lat="46.07738" lon="6.84084">
        <ele>960</ele>
        <time>2019-06-11T13:04:20Z</time>
      </trkpt>
      <trkpt lat="46.0772" lon="6.84099">
        <ele>961</ele>
        <time>2019-06-11T13:04:24Z</time>
      </trkpt>
      <trkpt lat="46.07703" lon="6.84103">
        <ele>961</ele>
        <time>2019-06-11T13:04:27Z</time>
      </trkpt>
      <trkpt lat="46.07689" lon="6.841">
        <ele>961</ele>
        <time>2019-06-11T13:04:29Z</time>
      </trkpt>
      <trkpt lat="46.07677" lon="6.84085">
        <ele>961</ele>
        <time>2019-06-11T13:04:32Z</time>
      </trkpt>
      <trkpt lat="46.0765" lon="6.84041">
        <ele>960</ele>
        <time>2019-06-11T13:04:39Z</time>
      </trkpt>
      <trkpt lat="46.07641" lon="6.84014">
        <ele>959</ele>
        <time>2019-06-11T13:04:43Z</time>
      </trkpt>
      <trkpt lat="46.07613" lon="6.83854">
        <ele>949</ele>
        <time>2019-06-11T13:05:03Z</time>
      </trkpt>
      <trkpt lat="46.0761" lon="6.83815">
        <ele>946</ele>
        <time>2019-06-11T13:05:08Z</time>
      </trkpt>
      <trkpt lat="46.07614" lon="6.83637">
        <ele>937</ele>
        <time>2019-06-11T13:05:30Z</time>
      </trkpt>
      <trkpt lat="46.07613" lon="6.83606">
        <ele>935</ele>
        <time>2019-06-11T13:05:34Z</time>
      </trkpt>
      <trkpt lat="46.07602" lon="6.83492">
        <ele>930</ele>
        <time>2019-06-11T13:05:48Z</time>
      </trkpt>
      <trkpt lat="46.07594" lon="6.83454">
        <ele>926</ele>
        <time>2019-06-11T13:05:53Z</time>
      </trkpt>
      <trkpt lat="46.0756" lon="6.83365">
        <ele>925</ele>
        <time>2019-06-11T13:06:06Z</time>
      </trkpt>
      <trkpt lat="46.07549" lon="6.8331">
        <ele>925</ele>
        <time>2019-06-11T13:06:13Z</time>
      </trkpt>
      <trkpt lat="46.07536" lon="6.83219">
        <ele>924</ele>
        <time>2019-06-11T13:06:24Z</time>
      </trkpt>
      <trkpt lat="46.07537" lon="6.8318">
        <ele>923</ele>
        <time>2019-06-11T13:06:29Z</time>
      </trkpt>
      <trkpt lat="46.07548" lon="6.83092">
        <ele>921</ele>
        <time>2019-06-11T13:06:40Z</time>
      </trkpt>
      <trkpt lat="46.0755" lon="6.83071">
        <ele>920</ele>
        <time>2019-06-11T13:06:43Z</time>
      </trkpt>
      <trkpt lat="46.07537" lon="6.82931">
        <ele>911</ele>
        <time>2019-06-11T13:07:00Z</time>
      </trkpt>
      <trkpt lat="46.07533" lon="6.82914">
        <ele>910</ele>
        <time>2019-06-11T13:07:02Z</time>
      </trkpt>
      <trkpt lat="46.075" lon="6.82823">
        <ele>903</ele>
        <time>2019-06-11T13:07:15Z</time>
      </trkpt>
      <trkpt lat="46.07448" lon="6.82548">
        <ele>891</ele>
        <time>2019-06-11T13:07:50Z</time>
      </trkpt>
      <trkpt lat="46.07442" lon="6.82523">
        <ele>889</ele>
        <time>2019-06-11T13:07:54Z</time>
      </trkpt>
      <trkpt lat="46.07432" lon="6.82499">
        <ele>889</ele>
        <time>2019-06-11T13:07:57Z</time>
      </trkpt>
      <trkpt lat="46.07424" lon="6.82486">
        <ele>889</ele>
        <time>2019-06-11T13:07:59Z</time>
      </trkpt>
      <trkpt lat="46.07409" lon="6.82473">
        <ele>889</ele>
        <time>2019-06-11T13:08:02Z</time>
      </trkpt>
      <trkpt lat="46.0738" lon="6.82454">
        <ele>888</ele>
        <time>2019-06-11T13:08:08Z</time>
      </trkpt>
      <trkpt lat="46.07371" lon="6.82444">
        <ele>887</ele>
        <time>2019-06-11T13:08:10Z</time>
      </trkpt>
      <trkpt lat="46.07364" lon="6.82431">
        <ele>886</ele>
        <time>2019-06-11T13:08:12Z</time>
      </trkpt>
      <trkpt lat="46.07359" lon="6.82416">
        <ele>884</ele>
        <time>2019-06-11T13:08:14Z</time>
      </trkpt>
      <trkpt lat="46.07356" lon="6.82389">
        <ele>882</ele>
        <time>2019-06-11T13:08:17Z</time>
      </trkpt>
      <trkpt lat="46.07357" lon="6.82266">
        <ele>875</ele>
        <time>2019-06-11T13:08:33Z</time>
      </trkpt>
      <trkpt lat="46.07359" lon="6.82241">
        <ele>874</ele>
        <time>2019-06-11T13:08:36Z</time>
      </trkpt>
      <trkpt lat="46.07372" lon="6.82195">
        <ele>875</ele>
        <time>2019-06-11T13:08:42Z</time>
      </trkpt>
      <trkpt lat="46.07375" lon="6.82174">
        <ele>876</ele>
        <time>2019-06-11T13:08:44Z</time>
      </trkpt>
      <trkpt lat="46.07375" lon="6.8216">
        <ele>876</ele>
        <time>2019-06-11T13:08:46Z</time>
      </trkpt>
      <trkpt lat="46.07372" lon="6.8214">
        <ele>876</ele>
        <time>2019-06-11T13:08:49Z</time>
      </trkpt>
      <trkpt lat="46.07365" lon="6.82117">
        <ele>876</ele>
        <time>2019-06-11T13:08:52Z</time>
      </trkpt>
      <trkpt lat="46.07257" lon="6.81855">
        <ele>867</ele>
        <time>2019-06-11T13:09:29Z</time>
      </trkpt>
      <trkpt lat="46.07224" lon="6.81759">
        <ele>863</ele>
        <time>2019-06-11T13:09:43Z</time>
      </trkpt>
      <trkpt lat="46.07186" lon="6.81616">
        <ele>862</ele>
        <time>2019-06-11T13:10:02Z</time>
      </trkpt>
      <trkpt lat="46.07174" lon="6.81579">
        <ele>860</ele>
        <time>2019-06-11T13:10:07Z</time>
      </trkpt>
      <trkpt lat="46.07132" lon="6.81475">
        <ele>855</ele>
        <time>2019-06-11T13:10:21Z</time>
      </trkpt>
      <trkpt lat="46.0706" lon="6.8126">
        <ele>851</ele>
        <time>2019-06-11T13:10:51Z</time>
      </trkpt>
      <trkpt lat="46.07054" lon="6.81232">
        <ele>851</ele>
        <time>2019-06-11T13:10:55Z</time>
      </trkpt>
      <trkpt lat="46.07038" lon="6.8104">
        <ele>848</ele>
        <time>2019-06-11T13:11:18Z</time>
      </trkpt>
      <trkpt lat="46.07028" lon="6.80948">
        <ele>848</ele>
        <time>2019-06-11T13:11:30Z</time>
      </trkpt>
      <trkpt lat="46.07018" lon="6.80884">
        <ele>848</ele>
        <time>2019-06-11T13:11:38Z</time>
      </trkpt>
      <trkpt lat="46.07004" lon="6.80834">
        <ele>845</ele>
        <time>2019-06-11T13:11:45Z</time>
      </trkpt>
      <trkpt lat="46.06994" lon="6.80808">
        <ele>850</ele>
        <time>2019-06-11T13:11:48Z</time>
      </trkpt>
      <trkpt lat="46.06988" lon="6.80795">
        <ele>853</ele>
        <time>2019-06-11T13:11:50Z</time>
      </trkpt>
      <trkpt lat="46.06954" lon="6.80742">
        <ele>854</ele>
        <time>2019-06-11T13:11:59Z</time>
      </trkpt>
      <trkpt lat="46.06916" lon="6.80662">
        <ele>843</ele>
        <time>2019-06-11T13:12:11Z</time>
      </trkpt>
      <trkpt lat="46.06911" lon="6.80654">
        <ele>844</ele>
        <time>2019-06-11T13:12:12Z</time>
      </trkpt>
      <trkpt lat="46.06825" lon="6.80571">
        <ele>835</ele>
        <time>2019-06-11T13:12:31Z</time>
      </trkpt>
      <trkpt lat="46.06816" lon="6.80557">
        <ele>836</ele>
        <time>2019-06-11T13:12:33Z</time>
      </trkpt>
      <trkpt lat="46.06806" lon="6.80538">
        <ele>837</ele>
        <time>2019-06-11T13:12:36Z</time>
      </trkpt>
      <trkpt lat="46.06764" lon="6.80384">
        <ele>837</ele>
        <time>2019-06-11T13:12:57Z</time>
      </trkpt>
      <trkpt lat="46.06721" lon="6.80249">
        <ele>837</ele>
        <time>2019-06-11T13:13:15Z</time>
      </trkpt>
      <trkpt lat="46.06705" lon="6.80213">
        <ele>838</ele>
        <time>2019-06-11T13:13:20Z</time>
      </trkpt>
      <trkpt lat="46.06674" lon="6.80153">
        <ele>836</ele>
        <time>2019-06-11T13:13:29Z</time>
      </trkpt>
      <trkpt lat="46.0663" lon="6.80085">
        <ele>833</ele>
        <time>2019-06-11T13:13:41Z</time>
      </trkpt>
      <trkpt lat="46.06608" lon="6.80045">
        <ele>832</ele>
        <time>2019-06-11T13:13:47Z</time>
      </trkpt>
      <trkpt lat="46.06583" lon="6.79982">
        <ele>828</ele>
        <time>2019-06-11T13:13:56Z</time>
      </trkpt>
      <trkpt lat="46.06563" lon="6.79916">
        <ele>826</ele>
        <time>2019-06-11T13:14:05Z</time>
      </trkpt>
      <trkpt lat="46.06548" lon="6.79859">
        <ele>828</ele>
        <time>2019-06-11T13:14:13Z</time>
      </trkpt>
      <trkpt lat="46.06532" lon="6.79809">
        <ele>829</ele>
        <time>2019-06-11T13:14:19Z</time>
      </trkpt>
      <trkpt lat="46.06525" lon="6.79791">
        <ele>830</ele>
        <time>2019-06-11T13:14:22Z</time>
      </trkpt>
      <trkpt lat="46.06507" lon="6.79766">
        <ele>829</ele>
        <time>2019-06-11T13:14:26Z</time>
      </trkpt>
      <trkpt lat="46.0646" lon="6.79722">
        <ele>829</ele>
        <time>2019-06-11T13:14:36Z</time>
      </trkpt>
      <trkpt lat="46.06448" lon="6.79707">
        <ele>829</ele>
        <time>2019-06-11T13:14:39Z</time>
      </trkpt>
      <trkpt lat="46.06439" lon="6.79684">
        <ele>828</ele>
        <time>2019-06-11T13:14:42Z</time>
      </trkpt>
      <trkpt lat="46.06437" lon="6.79666">
        <ele>828</ele>
        <time>2019-06-11T13:14:45Z</time>
      </trkpt>
      <trkpt lat="46.06435" lon="6.79592">
        <ele>834</ele>
        <time>2019-06-11T13:14:54Z</time>
      </trkpt>
      <trkpt lat="46.06433" lon="6.79563">
        <ele>835</ele>
        <time>2019-06-11T13:14:57Z</time>
      </trkpt>
      <trkpt lat="46.06426" lon="6.79525">
        <ele>837</ele>
        <time>2019-06-11T13:15:02Z</time>
      </trkpt>
      <trkpt lat="46.06416" lon="6.79495">
        <ele>838</ele>
        <time>2019-06-11T13:15:06Z</time>
      </trkpt>
      <trkpt lat="46.06407" lon="6.79482">
        <ele>841</ele>
        <time>2019-06-11T13:15:09Z</time>
      </trkpt>
      <trkpt lat="46.06395" lon="6.79472">
        <ele>841</ele>
        <time>2019-06-11T13:15:11Z</time>
      </trkpt>
      <trkpt lat="46.06327" lon="6.79431">
        <ele>832</ele>
        <time>2019-06-11T13:15:24Z</time>
      </trkpt>
      <trkpt lat="46.06278" lon="6.79379">
        <ele>831</ele>
        <time>2019-06-11T13:15:35Z</time>
      </trkpt>
      <trkpt lat="46.06255" lon="6.79365">
        <ele>829</ele>
        <time>2019-06-11T13:15:40Z</time>
      </trkpt>
      <trkpt lat="46.06237" lon="6.7936">
        <ele>827</ele>
        <time>2019-06-11T13:15:43Z</time>
      </trkpt>
      <trkpt lat="46.06224" lon="6.79359">
        <ele>825</ele>
        <time>2019-06-11T13:15:45Z</time>
      </trkpt>
      <trkpt lat="46.06179" lon="6.79365">
        <ele>818</ele>
        <time>2019-06-11T13:15:53Z</time>
      </trkpt>
      <trkpt lat="46.06167" lon="6.79363">
        <ele>817</ele>
        <time>2019-06-11T13:15:55Z</time>
      </trkpt>
      <trkpt lat="46.06151" lon="6.79354">
        <ele>817</ele>
        <time>2019-06-11T13:15:58Z</time>
      </trkpt>
      <trkpt lat="46.06103" lon="6.79315">
        <ele>818</ele>
        <time>2019-06-11T13:16:08Z</time>
      </trkpt>
      <trkpt lat="46.05968" lon="6.79228">
        <ele>820</ele>
        <time>2019-06-11T13:16:34Z</time>
      </trkpt>
      <trkpt lat="46.05946" lon="6.79211">
        <ele>821</ele>
        <time>2019-06-11T13:16:39Z</time>
      </trkpt>
      <trkpt lat="46.05933" lon="6.79194">
        <ele>820</ele>
        <time>2019-06-11T13:16:42Z</time>
      </trkpt>
      <trkpt lat="46.0592" lon="6.79162">
        <ele>817</ele>
        <time>2019-06-11T13:16:47Z</time>
      </trkpt>
      <trkpt lat="46.05914" lon="6.79135">
        <ele>815</ele>
        <time>2019-06-11T13:16:50Z</time>
      </trkpt>
      <trkpt lat="46.05912" lon="6.79056">
        <ele>810</ele>
        <time>2019-06-11T13:17:00Z</time>
      </trkpt>
      <trkpt lat="46.05909" lon="6.7904">
        <ele>811</ele>
        <time>2019-06-11T13:17:02Z</time>
      </trkpt>
      <trkpt lat="46.05904" lon="6.79025">
        <ele>811</ele>
        <time>2019-06-11T13:17:04Z</time>
      </trkpt>
      <trkpt lat="46.05885" lon="6.78991">
        <ele>811</ele>
        <time>2019-06-11T13:17:09Z</time>
      </trkpt>
      <trkpt lat="46.05878" lon="6.78972">
        <ele>810</ele>
        <time>2019-06-11T13:17:12Z</time>
      </trkpt>
      <trkpt lat="46.0586" lon="6.78902">
        <ele>806</ele>
        <time>2019-06-11T13:17:21Z</time>
      </trkpt>
      <trkpt lat="46.05826" lon="6.78849">
        <ele>805</ele>
        <time>2019-06-11T13:17:30Z</time>
      </trkpt>
      <trkpt lat="46.05814" lon="6.78808">
        <ele>807</ele>
        <time>2019-06-11T13:17:36Z</time>
      </trkpt>
      <trkpt lat="46.05801" lon="6.78712">
        <ele>800</ele>
        <time>2019-06-11T13:17:48Z</time>
      </trkpt>
      <trkpt lat="46.05801" lon="6.78688">
        <ele>797</ele>
        <time>2019-06-11T13:17:51Z</time>
      </trkpt>
      <trkpt lat="46.05805" lon="6.78669">
        <ele>795</ele>
        <time>2019-06-11T13:17:53Z</time>
      </trkpt>
      <trkpt lat="46.05812" lon="6.78649">
        <ele>792</ele>
        <time>2019-06-11T13:17:56Z</time>
      </trkpt>
      <trkpt lat="46.05841" lon="6.78589">
        <ele>787</ele>
        <time>2019-06-11T13:18:05Z</time>
      </trkpt>
      <trkpt lat="46.05852" lon="6.78536">
        <ele>785</ele>
        <time>2019-06-11T13:18:12Z</time>
      </trkpt>
      <trkpt lat="46.05852" lon="6.78511">
        <ele>783</ele>
        <time>2019-06-11T13:18:15Z</time>
      </trkpt>
      <trkpt lat="46.05848" lon="6.78464">
        <ele>782</ele>
        <time>2019-06-11T13:18:21Z</time>
      </trkpt>
      <trkpt lat="46.05812" lon="6.78283">
        <ele>791</ele>
        <time>2019-06-11T13:18:44Z</time>
      </trkpt>
      <trkpt lat="46.05806" lon="6.78259">
        <ele>794</ele>
        <time>2019-06-11T13:18:47Z</time>
      </trkpt>
      <trkpt lat="46.05794" lon="6.78232">
        <ele>795</ele>
        <time>2019-06-11T13:18:51Z</time>
      </trkpt>
      <trkpt lat="46.0576" lon="6.7818">
        <ele>787</ele>
        <time>2019-06-11T13:19:00Z</time>
      </trkpt>
      <trkpt lat="46.05745" lon="6.78152">
        <ele>785</ele>
        <time>2019-06-11T13:19:04Z</time>
      </trkpt>
      <trkpt lat="46.05723" lon="6.78103">
        <ele>789</ele>
        <time>2019-06-11T13:19:11Z</time>
      </trkpt>
      <trkpt lat="46.05661" lon="6.77945">
        <ele>783</ele>
        <time>2019-06-11T13:19:34Z</time>
      </trkpt>
      <trkpt lat="46.05644" lon="6.77855">
        <ele>783</ele>
        <time>2019-06-11T13:19:45Z</time>
      </trkpt>
      <trkpt lat="46.05636" lon="6.77829">
        <ele>782</ele>
        <time>2019-06-11T13:19:49Z</time>
      </trkpt>
      <trkpt lat="46.05614" lon="6.7778">
        <ele>777</ele>
        <time>2019-06-11T13:19:56Z</time>
      </trkpt>
      <trkpt lat="46.05605" lon="6.77763">
        <ele>773</ele>
        <time>2019-06-11T13:19:59Z</time>
      </trkpt>
      <trkpt lat="46.05553" lon="6.77694">
        <ele>770</ele>
        <time>2019-06-11T13:20:11Z</time>
      </trkpt>
      <trkpt lat="46.05546" lon="6.77677">
        <ele>770</ele>
        <time>2019-06-11T13:20:14Z</time>
      </trkpt>
      <trkpt lat="46.05533" lon="6.77609">
        <ele>769</ele>
        <time>2019-06-11T13:20:22Z</time>
      </trkpt>
      <trkpt lat="46.05528" lon="6.77564">
        <ele>769</ele>
        <time>2019-06-11T13:20:28Z</time>
      </trkpt>
      <trkpt lat="46.05494" lon="6.77367">
        <ele>764</ele>
        <time>2019-06-11T13:20:53Z</time>
      </trkpt>
      <trkpt lat="46.05486" lon="6.77294">
        <ele>765</ele>
        <time>2019-06-11T13:21:02Z</time>
      </trkpt>
      <trkpt lat="46.05485" lon="6.7726">
        <ele>765</ele>
        <time>2019-06-11T13:21:07Z</time>
      </trkpt>
      <trkpt lat="46.05489" lon="6.77217">
        <ele>766</ele>
        <time>2019-06-11T13:21:12Z</time>
      </trkpt>
      <trkpt lat="46.05509" lon="6.77096">
        <ele>775</ele>
        <time>2019-06-11T13:21:27Z</time>
      </trkpt>
      <trkpt lat="46.05519" lon="6.76998">
        <ele>783</ele>
        <time>2019-06-11T13:21:39Z</time>
      </trkpt>
      <trkpt lat="46.0552" lon="6.7698">
        <ele>783</ele>
        <time>2019-06-11T13:21:42Z</time>
      </trkpt>
      <trkpt lat="46.05518" lon="6.76946">
        <ele>779</ele>
        <time>2019-06-11T13:21:46Z</time>
      </trkpt>
      <trkpt lat="46.05507" lon="6.76846">
        <ele>769</ele>
        <time>2019-06-11T13:21:58Z</time>
      </trkpt>
      <trkpt lat="46.05506" lon="6.7681">
        <ele>770</ele>
        <time>2019-06-11T13:22:03Z</time>
      </trkpt>
      <trkpt lat="46.05506" lon="6.76704">
        <ele>773</ele>
        <time>2019-06-11T13:22:16Z</time>
      </trkpt>
      <trkpt lat="46.05513" lon="6.76651">
        <ele>777</ele>
        <time>2019-06-11T13:22:23Z</time>
      </trkpt>
      <trkpt lat="46.05542" lon="6.76519">
        <ele>778</ele>
        <time>2019-06-11T13:22:40Z</time>
      </trkpt>
      <trkpt lat="46.05544" lon="6.76475">
        <ele>776</ele>
        <time>2019-06-11T13:22:45Z</time>
      </trkpt>
      <trkpt lat="46.05537" lon="6.76419">
        <ele>774</ele>
        <time>2019-06-11T13:22:52Z</time>
      </trkpt>
      <trkpt lat="46.05535" lon="6.76387">
        <ele>771</ele>
        <time>2019-06-11T13:22:56Z</time>
      </trkpt>
      <trkpt lat="46.05536" lon="6.76368">
        <ele>770</ele>
        <time>2019-06-11T13:22:58Z</time>
      </trkpt>
      <trkpt lat="46.05542" lon="6.76334">
        <ele>770</ele>
        <time>2019-06-11T13:23:03Z</time>
      </trkpt>
      <trkpt lat="46.05549" lon="6.76308">
        <ele>769</ele>
        <time>2019-06-11T13:23:06Z</time>
      </trkpt>
      <trkpt lat="46.05565" lon="6.76276">
        <ele>770</ele>
        <time>2019-06-11T13:23:11Z</time>
      </trkpt>
      <trkpt lat="46.05602" lon="6.76228">
        <ele>776</ele>
        <time>2019-06-11T13:23:20Z</time>
      </trkpt>
      <trkpt lat="46.05605" lon="6.76222">
        <ele>776</ele>
        <time>2019-06-11T13:23:21Z</time>
      </trkpt>
      <trkpt lat="46.05612" lon="6.76203">
        <ele>777</ele>
        <time>2019-06-11T13:23:24Z</time>
      </trkpt>
      <trkpt lat="46.05623" lon="6.76146">
        <ele>779</ele>
        <time>2019-06-11T13:23:31Z</time>
      </trkpt>
      <trkpt lat="46.05626" lon="6.76125">
        <ele>782</ele>
        <time>2019-06-11T13:23:34Z</time>
      </trkpt>
      <trkpt lat="46.05626" lon="6.76102">
        <ele>783</ele>
        <time>2019-06-11T13:23:36Z</time>
      </trkpt>
      <trkpt lat="46.05623" lon="6.76082">
        <ele>783</ele>
        <time>2019-06-11T13:23:39Z</time>
      </trkpt>
      <trkpt lat="46.05619" lon="6.76068">
        <ele>782</ele>
        <time>2019-06-11T13:23:41Z</time>
      </trkpt>
      <trkpt lat="46.05608" lon="6.76048">
        <ele>778</ele>
        <time>2019-06-11T13:23:44Z</time>
      </trkpt>
      <trkpt lat="46.05565" lon="6.7599">
        <ele>776</ele>
        <time>2019-06-11T13:23:54Z</time>
      </trkpt>
      <trkpt lat="46.05559" lon="6.75979">
        <ele>778</ele>
        <time>2019-06-11T13:23:56Z</time>
      </trkpt>
      <trkpt lat="46.05551" lon="6.75953">
        <ele>782</ele>
        <time>2019-06-11T13:24:00Z</time>
      </trkpt>
      <trkpt lat="46.05551" lon="6.75928">
        <ele>785</ele>
        <time>2019-06-11T13:24:03Z</time>
      </trkpt>
      <trkpt lat="46.05557" lon="6.75904">
        <ele>787</ele>
        <time>2019-06-11T13:24:06Z</time>
      </trkpt>
      <trkpt lat="46.056" lon="6.75809">
        <ele>792</ele>
        <time>2019-06-11T13:24:20Z</time>
      </trkpt>
      <trkpt lat="46.05637" lon="6.75736">
        <ele>791</ele>
        <time>2019-06-11T13:24:31Z</time>
      </trkpt>
      <trkpt lat="46.05651" lon="6.75713">
        <ele>786</ele>
        <time>2019-06-11T13:24:35Z</time>
      </trkpt>
      <trkpt lat="46.05671" lon="6.75692">
        <ele>783</ele>
        <time>2019-06-11T13:24:39Z</time>
      </trkpt>
      <trkpt lat="46.05738" lon="6.75632">
        <ele>783</ele>
        <time>2019-06-11T13:24:53Z</time>
      </trkpt>
      <trkpt lat="46.05813" lon="6.75573">
        <ele>784</ele>
        <time>2019-06-11T13:25:08Z</time>
      </trkpt>
      <trkpt lat="46.05818" lon="6.75567">
        <ele>784</ele>
        <time>2019-06-11T13:25:10Z</time>
      </trkpt>
      <trkpt lat="46.05832" lon="6.75546">
        <ele>782</ele>
        <time>2019-06-11T13:25:13Z</time>
      </trkpt>
      <trkpt lat="46.05878" lon="6.75426">
        <ele>772</ele>
        <time>2019-06-11T13:25:30Z</time>
      </trkpt>
      <trkpt lat="46.05886" lon="6.75372">
        <ele>768</ele>
        <time>2019-06-11T13:25:37Z</time>
      </trkpt>
      <trkpt lat="46.05887" lon="6.75336">
        <ele>763</ele>
        <time>2019-06-11T13:25:41Z</time>
      </trkpt>
      <trkpt lat="46.05884" lon="6.75313">
        <ele>763</ele>
        <time>2019-06-11T13:25:44Z</time>
      </trkpt>
      <trkpt lat="46.05861" lon="6.7518">
        <ele>762</ele>
        <time>2019-06-11T13:26:01Z</time>
      </trkpt>
      <trkpt lat="46.05851" lon="6.75144">
        <ele>761</ele>
        <time>2019-06-11T13:26:06Z</time>
      </trkpt>
      <trkpt lat="46.05845" lon="6.75131">
        <ele>760</ele>
        <time>2019-06-11T13:26:08Z</time>
      </trkpt>
      <trkpt lat="46.05834" lon="6.75116">
        <ele>757</ele>
        <time>2019-06-11T13:26:11Z</time>
      </trkpt>
      <trkpt lat="46.05798" lon="6.75087">
        <ele>753</ele>
        <time>2019-06-11T13:26:18Z</time>
      </trkpt>
      <trkpt lat="46.05783" lon="6.75071">
        <ele>752</ele>
        <time>2019-06-11T13:26:21Z</time>
      </trkpt>
      <trkpt lat="46.05764" lon="6.75038">
        <ele>750</ele>
        <time>2019-06-11T13:26:27Z</time>
      </trkpt>
      <trkpt lat="46.05749" lon="6.75003">
        <ele>749</ele>
        <time>2019-06-11T13:26:32Z</time>
      </trkpt>
      <trkpt lat="46.05744" lon="6.74981">
        <ele>748</ele>
        <time>2019-06-11T13:26:34Z</time>
      </trkpt>
      <trkpt lat="46.0574" lon="6.74914">
        <ele>749</ele>
        <time>2019-06-11T13:26:43Z</time>
      </trkpt>
      <trkpt lat="46.05741" lon="6.749">
        <ele>748</ele>
        <time>2019-06-11T13:26:45Z</time>
      </trkpt>
      <trkpt lat="46.05744" lon="6.74888">
        <ele>747</ele>
        <time>2019-06-11T13:26:46Z</time>
      </trkpt>
      <trkpt lat="46.05757" lon="6.74866">
        <ele>746</ele>
        <time>2019-06-11T13:26:50Z</time>
      </trkpt>
      <trkpt lat="46.05802" lon="6.74806">
        <ele>753</ele>
        <time>2019-06-11T13:27:01Z</time>
      </trkpt>
      <trkpt lat="46.05811" lon="6.74792">
        <ele>753</ele>
        <time>2019-06-11T13:27:03Z</time>
      </trkpt>
      <trkpt lat="46.05847" lon="6.74722">
        <ele>746</ele>
        <time>2019-06-11T13:27:14Z</time>
      </trkpt>
      <trkpt lat="46.05928" lon="6.7458">
        <ele>729</ele>
        <time>2019-06-11T13:27:36Z</time>
      </trkpt>
      <trkpt lat="46.05969" lon="6.74504">
        <ele>728</ele>
        <time>2019-06-11T13:27:48Z</time>
      </trkpt>
      <trkpt lat="46.05987" lon="6.74481">
        <ele>728</ele>
        <time>2019-06-11T13:27:53Z</time>
      </trkpt>
      <trkpt lat="46.05997" lon="6.74471">
        <ele>728</ele>
        <time>2019-06-11T13:27:55Z</time>
      </trkpt>
      <trkpt lat="46.06023" lon="6.74459">
        <ele>727</ele>
        <time>2019-06-11T13:28:00Z</time>
      </trkpt>
      <trkpt lat="46.06042" lon="6.74454">
        <ele>727</ele>
        <time>2019-06-11T13:28:03Z</time>
      </trkpt>
      <trkpt lat="46.06125" lon="6.74448">
        <ele>725</ele>
        <time>2019-06-11T13:28:18Z</time>
      </trkpt>
      <trkpt lat="46.06248" lon="6.74442">
        <ele>725</ele>
        <time>2019-06-11T13:28:40Z</time>
      </trkpt>
      <trkpt lat="46.06327" lon="6.74434">
        <ele>725</ele>
        <time>2019-06-11T13:28:54Z</time>
      </trkpt>
      <trkpt lat="46.06358" lon="6.74427">
        <ele>724</ele>
        <time>2019-06-11T13:28:59Z</time>
      </trkpt>
      <trkpt lat="46.06393" lon="6.74415">
        <ele>723</ele>
        <time>2019-06-11T13:29:06Z</time>
      </trkpt>
      <trkpt lat="46.06443" lon="6.74391">
        <ele>721</ele>
        <time>2019-06-11T13:29:15Z</time>
      </trkpt>
      <trkpt lat="46.06485" lon="6.74364">
        <ele>720</ele>
        <time>2019-06-11T13:29:23Z</time>
      </trkpt>
      <trkpt lat="46.06731" lon="6.74186">
        <ele>716</ele>
        <time>2019-06-11T13:30:12Z</time>
      </trkpt>
      <trkpt lat="46.06841" lon="6.74102">
        <ele>714</ele>
        <time>2019-06-11T13:30:34Z</time>
      </trkpt>
      <trkpt lat="46.07491" lon="6.73624">
        <ele>708</ele>
        <time>2019-06-11T13:32:44Z</time>
      </trkpt>
      <trkpt lat="46.07541" lon="6.73591">
        <ele>708</ele>
        <time>2019-06-11T13:32:54Z</time>
      </trkpt>
      <trkpt lat="46.07702" lon="6.73497">
        <ele>705</ele>
        <time>2019-06-11T13:33:25Z</time>
      </trkpt>
      <trkpt lat="46.07739" lon="6.73469">
        <ele>705</ele>
        <time>2019-06-11T13:33:32Z</time>
      </trkpt>
      <trkpt lat="46.0778" lon="6.73429">
        <ele>706</ele>
        <time>2019-06-11T13:33:41Z</time>
      </trkpt>
      <trkpt lat="46.07784" lon="6.73404">
        <ele>707</ele>
        <time>2019-06-11T13:33:44Z</time>
      </trkpt>
      <trkpt lat="46.07803" lon="6.73337">
        <ele>709</ele>
        <time>2019-06-11T13:33:53Z</time>
      </trkpt>
      <trkpt lat="46.07807" lon="6.73318">
        <ele>710</ele>
        <time>2019-06-11T13:33:56Z</time>
      </trkpt>
      <trkpt lat="46.07815" lon="6.73266">
        <ele>710</ele>
        <time>2019-06-11T13:34:02Z</time>
      </trkpt>
      <trkpt lat="46.07802" lon="6.73257">
        <ele>710</ele>
        <time>2019-06-11T13:34:05Z</time>
      </trkpt>
      <trkpt lat="46.07794" lon="6.73244">
        <ele>710</ele>
        <time>2019-06-11T13:34:07Z</time>
      </trkpt>
      <trkpt lat="46.07789" lon="6.73228">
        <ele>709</ele>
        <time>2019-06-11T13:34:09Z</time>
      </trkpt>
      <trkpt lat="46.07788" lon="6.73214">
        <ele>709</ele>
        <time>2019-06-11T13:34:11Z</time>
      </trkpt>
      <trkpt lat="46.07787" lon="6.73187">
        <ele>709</ele>
        <time>2019-06-11T13:34:14Z</time>
      </trkpt>
      <trkpt lat="46.07793" lon="6.73186">
        <ele>709</ele>
        <time>2019-06-11T13:34:15Z</time>
      </trkpt>
      <trkpt lat="46.078" lon="6.73182">
        <ele>709</ele>
        <time>2019-06-11T13:34:17Z</time>
      </trkpt>
      <trkpt lat="46.07806" lon="6.73173">
        <ele>709</ele>
        <time>2019-06-11T13:34:18Z</time>
      </trkpt>
      <trkpt lat="46.0792" lon="6.72963">
        <ele>714</ele>
        <time>2019-06-11T13:34:51Z</time>
      </trkpt>
      <trkpt lat="46.0802" lon="6.72787">
        <ele>708</ele>
        <time>2019-06-11T13:35:19Z</time>
      </trkpt>
      <trkpt lat="46.08035" lon="6.72754">
        <ele>708</ele>
        <time>2019-06-11T13:35:24Z</time>
      </trkpt>
      <trkpt lat="46.08065" lon="6.72725">
        <ele>706</ele>
        <time>2019-06-11T13:35:31Z</time>
      </trkpt>
      <trkpt lat="46.08068" lon="6.72721">
        <ele>706</ele>
        <time>2019-06-11T13:35:31Z</time>
      </trkpt>
      <trkpt lat="46.0807" lon="6.72712">
        <ele>706</ele>
        <time>2019-06-11T13:35:32Z</time>
      </trkpt>
      <trkpt lat="46.08069" lon="6.72705">
        <ele>706</ele>
        <time>2019-06-11T13:35:33Z</time>
      </trkpt>
      <trkpt lat="46.08065" lon="6.72698">
        <ele>705</ele>
        <time>2019-06-11T13:35:34Z</time>
      </trkpt>
      <trkpt lat="46.08062" lon="6.72696">
        <ele>705</ele>
        <time>2019-06-11T13:35:35Z</time>
      </trkpt>
      <trkpt lat="46.08053" lon="6.72697">
        <ele>705</ele>
        <time>2019-06-11T13:35:37Z</time>
      </trkpt>
      <trkpt lat="46.08046" lon="6.72683">
        <ele>705</ele>
        <time>2019-06-11T13:35:39Z</time>
      </trkpt>
      <trkpt lat="46.08031" lon="6.72661">
        <ele>704</ele>
        <time>2019-06-11T13:35:43Z</time>
      </trkpt>
      <trkpt lat="46.08016" lon="6.72647">
        <ele>704</ele>
        <time>2019-06-11T13:35:46Z</time>
      </trkpt>
      <trkpt lat="46.07907" lon="6.72566">
        <ele>703</ele>
        <time>2019-06-11T13:36:08Z</time>
      </trkpt>
      <trkpt lat="46.0788" lon="6.72552">
        <ele>703</ele>
        <time>2019-06-11T13:36:13Z</time>
      </trkpt>
      <trkpt lat="46.07863" lon="6.72539">
        <ele>703</ele>
        <time>2019-06-11T13:36:16Z</time>
      </trkpt>
      <trkpt lat="46.07844" lon="6.72588">
        <ele>703</ele>
        <time>2019-06-11T13:36:23Z</time>
      </trkpt>
      <trkpt lat="46.07848" lon="6.72591">
        <ele>703</ele>
        <time>2019-06-11T13:36:24Z</time>
      </trkpt>
    </trkseg>
  </trk>
</gpx>